<?xml version="1.0" encoding="UTF-8" standalone="no" ?>
<gpx xmlns="http://www.topografix.com/GPX/1/1" xmlns:xsi="http://www.w3.org/2001/XMLSchema-instance" xsi:schemaLocation="http://www.topografix.com/GPX/1/1 http://www.topografix.com/GPX/1/1/gpx.xsd" version="1.1" creator="VisuGPX - https://www.visugpx.com">
  <metadata>
    <name>AÏE !!!</name>
    <desc><![CDATA[abcdefghijk]]></desc>
  </metadata>
  <trk>
    <name><![CDATA[ACTIVE LOG: 16 JUN 2016 09:20]]></name>
    <trkseg>
      <trkpt lat="43.4231" lon="3.02404">
        <ele>228.93</ele>
        <time>2016-06-16T07:20:57Z</time>
      </trkpt>
      <trkpt lat="43.42301" lon="3.02411">
        <ele>226.05</ele>
        <time>2016-06-16T07:22:50Z</time>
      </trkpt>
      <trkpt lat="43.42292" lon="3.02438">
        <ele>223.16</ele>
        <time>2016-06-16T07:23:06Z</time>
      </trkpt>
      <trkpt lat="43.42266" lon="3.02412">
        <ele>220.76</ele>
        <time>2016-06-16T07:23:19Z</time>
      </trkpt>
      <trkpt lat="43.42261" lon="3.02401">
        <ele>220.28</ele>
        <time>2016-06-16T07:23:21Z</time>
      </trkpt>
      <trkpt lat="43.4226" lon="3.02398">
        <ele>219.32</ele>
        <time>2016-06-16T07:23:22Z</time>
      </trkpt>
      <trkpt lat="43.4226" lon="3.02402">
        <ele>218.36</ele>
        <time>2016-06-16T07:23:24Z</time>
      </trkpt>
      <trkpt lat="43.42258" lon="3.02441">
        <ele>217.4</ele>
        <time>2016-06-16T07:23:32Z</time>
      </trkpt>
      <trkpt lat="43.42287" lon="3.02526">
        <ele>214.51</ele>
        <time>2016-06-16T07:23:45Z</time>
      </trkpt>
      <trkpt lat="43.42292" lon="3.0254">
        <ele>213.55</ele>
        <time>2016-06-16T07:23:47Z</time>
      </trkpt>
      <trkpt lat="43.42296" lon="3.02595">
        <ele>210.67</ele>
        <time>2016-06-16T07:23:53Z</time>
      </trkpt>
      <trkpt lat="43.4233" lon="3.02702">
        <ele>207.3</ele>
        <time>2016-06-16T07:24:04Z</time>
      </trkpt>
      <trkpt lat="43.42336" lon="3.02717">
        <ele>206.82</ele>
        <time>2016-06-16T07:24:06Z</time>
      </trkpt>
      <trkpt lat="43.42324" lon="3.02751">
        <ele>206.82</ele>
        <time>2016-06-16T07:24:12Z</time>
      </trkpt>
      <trkpt lat="43.42311" lon="3.02763">
        <ele>205.38</ele>
        <time>2016-06-16T07:24:23Z</time>
      </trkpt>
      <trkpt lat="43.4231" lon="3.02763">
        <ele>204.9</ele>
        <time>2016-06-16T07:24:30Z</time>
      </trkpt>
      <trkpt lat="43.4227" lon="3.02819">
        <ele>202.01</ele>
        <time>2016-06-16T07:24:44Z</time>
      </trkpt>
      <trkpt lat="43.42229" lon="3.02868">
        <ele>198.65</ele>
        <time>2016-06-16T07:24:53Z</time>
      </trkpt>
      <trkpt lat="43.42184" lon="3.02921">
        <ele>194.8</ele>
        <time>2016-06-16T07:25:01Z</time>
      </trkpt>
      <trkpt lat="43.42115" lon="3.03014">
        <ele>193.84</ele>
        <time>2016-06-16T07:25:15Z</time>
      </trkpt>
      <trkpt lat="43.42109" lon="3.03097">
        <ele>197.21</ele>
        <time>2016-06-16T07:25:29Z</time>
      </trkpt>
      <trkpt lat="43.42115" lon="3.03199">
        <ele>200.09</ele>
        <time>2016-06-16T07:25:53Z</time>
      </trkpt>
      <trkpt lat="43.42125" lon="3.03287">
        <ele>202.98</ele>
        <time>2016-06-16T07:26:16Z</time>
      </trkpt>
      <trkpt lat="43.42136" lon="3.03366">
        <ele>206.34</ele>
        <time>2016-06-16T07:26:39Z</time>
      </trkpt>
      <trkpt lat="43.42144" lon="3.0343">
        <ele>209.22</ele>
        <time>2016-06-16T07:27:01Z</time>
      </trkpt>
      <trkpt lat="43.42153" lon="3.03491">
        <ele>212.11</ele>
        <time>2016-06-16T07:27:24Z</time>
      </trkpt>
      <trkpt lat="43.42164" lon="3.03553">
        <ele>214.99</ele>
        <time>2016-06-16T07:27:47Z</time>
      </trkpt>
      <trkpt lat="43.42173" lon="3.03607">
        <ele>217.88</ele>
        <time>2016-06-16T07:28:07Z</time>
      </trkpt>
      <trkpt lat="43.42176" lon="3.03668">
        <ele>220.76</ele>
        <time>2016-06-16T07:28:27Z</time>
      </trkpt>
      <trkpt lat="43.42171" lon="3.03721">
        <ele>224.12</ele>
        <time>2016-06-16T07:28:45Z</time>
      </trkpt>
      <trkpt lat="43.42148" lon="3.03758">
        <ele>227.01</ele>
        <time>2016-06-16T07:29:01Z</time>
      </trkpt>
      <trkpt lat="43.4213" lon="3.0381">
        <ele>229.41</ele>
        <time>2016-06-16T07:29:21Z</time>
      </trkpt>
      <trkpt lat="43.42128" lon="3.03891">
        <ele>230.37</ele>
        <time>2016-06-16T07:29:44Z</time>
      </trkpt>
      <trkpt lat="43.42137" lon="3.03952">
        <ele>231.33</ele>
        <time>2016-06-16T07:30:00Z</time>
      </trkpt>
      <trkpt lat="43.42137" lon="3.03993">
        <ele>230.37</ele>
        <time>2016-06-16T07:30:07Z</time>
      </trkpt>
      <trkpt lat="43.42121" lon="3.04029">
        <ele>226.53</ele>
        <time>2016-06-16T07:30:12Z</time>
      </trkpt>
      <trkpt lat="43.42141" lon="3.04082">
        <ele>224.61</ele>
        <time>2016-06-16T07:30:22Z</time>
      </trkpt>
      <trkpt lat="43.4215" lon="3.04109">
        <ele>224.61</ele>
        <time>2016-06-16T07:30:27Z</time>
      </trkpt>
      <trkpt lat="43.42149" lon="3.04148">
        <ele>222.68</ele>
        <time>2016-06-16T07:30:32Z</time>
      </trkpt>
      <trkpt lat="43.42152" lon="3.04175">
        <ele>221.72</ele>
        <time>2016-06-16T07:30:35Z</time>
      </trkpt>
      <trkpt lat="43.42144" lon="3.04262">
        <ele>219.32</ele>
        <time>2016-06-16T07:30:45Z</time>
      </trkpt>
      <trkpt lat="43.42162" lon="3.04318">
        <ele>218.84</ele>
        <time>2016-06-16T07:30:53Z</time>
      </trkpt>
      <trkpt lat="43.42172" lon="3.04336">
        <ele>218.36</ele>
        <time>2016-06-16T07:30:56Z</time>
      </trkpt>
      <trkpt lat="43.42174" lon="3.04371">
        <ele>217.4</ele>
        <time>2016-06-16T07:31:02Z</time>
      </trkpt>
      <trkpt lat="43.42168" lon="3.04403">
        <ele>216.43</ele>
        <time>2016-06-16T07:31:08Z</time>
      </trkpt>
      <trkpt lat="43.42212" lon="3.04527">
        <ele>214.99</ele>
        <time>2016-06-16T07:31:26Z</time>
      </trkpt>
      <trkpt lat="43.42233" lon="3.04587">
        <ele>214.03</ele>
        <time>2016-06-16T07:31:35Z</time>
      </trkpt>
      <trkpt lat="43.42238" lon="3.04616">
        <ele>213.55</ele>
        <time>2016-06-16T07:31:39Z</time>
      </trkpt>
      <trkpt lat="43.42245" lon="3.04651">
        <ele>213.07</ele>
        <time>2016-06-16T07:31:44Z</time>
      </trkpt>
      <trkpt lat="43.42269" lon="3.04694">
        <ele>212.59</ele>
        <time>2016-06-16T07:31:51Z</time>
      </trkpt>
      <trkpt lat="43.42318" lon="3.04797">
        <ele>211.15</ele>
        <time>2016-06-16T07:32:09Z</time>
      </trkpt>
      <trkpt lat="43.42379" lon="3.04886">
        <ele>209.22</ele>
        <time>2016-06-16T07:32:28Z</time>
      </trkpt>
      <trkpt lat="43.42445" lon="3.04947">
        <ele>208.74</ele>
        <time>2016-06-16T07:32:47Z</time>
      </trkpt>
      <trkpt lat="43.42481" lon="3.05016">
        <ele>205.86</ele>
        <time>2016-06-16T07:33:01Z</time>
      </trkpt>
      <trkpt lat="43.42502" lon="3.0505">
        <ele>203.94</ele>
        <time>2016-06-16T07:33:08Z</time>
      </trkpt>
      <trkpt lat="43.42521" lon="3.05066">
        <ele>203.94</ele>
        <time>2016-06-16T07:33:13Z</time>
      </trkpt>
      <trkpt lat="43.42578" lon="3.05077">
        <ele>202.49</ele>
        <time>2016-06-16T07:33:27Z</time>
      </trkpt>
      <trkpt lat="43.42637" lon="3.05132">
        <ele>200.57</ele>
        <time>2016-06-16T07:33:44Z</time>
      </trkpt>
      <trkpt lat="43.42663" lon="3.05158">
        <ele>200.09</ele>
        <time>2016-06-16T07:33:53Z</time>
      </trkpt>
      <trkpt lat="43.42674" lon="3.05157">
        <ele>200.09</ele>
        <time>2016-06-16T07:33:56Z</time>
      </trkpt>
      <trkpt lat="43.42682" lon="3.05153">
        <ele>200.09</ele>
        <time>2016-06-16T07:33:58Z</time>
      </trkpt>
      <trkpt lat="43.427" lon="3.05195">
        <ele>201.53</ele>
        <time>2016-06-16T07:34:11Z</time>
      </trkpt>
      <trkpt lat="43.42705" lon="3.05213">
        <ele>202.01</ele>
        <time>2016-06-16T07:34:16Z</time>
      </trkpt>
      <trkpt lat="43.42702" lon="3.05234">
        <ele>202.01</ele>
        <time>2016-06-16T07:34:21Z</time>
      </trkpt>
      <trkpt lat="43.42689" lon="3.05298">
        <ele>202.98</ele>
        <time>2016-06-16T07:34:38Z</time>
      </trkpt>
      <trkpt lat="43.42674" lon="3.05333">
        <ele>204.42</ele>
        <time>2016-06-16T07:34:50Z</time>
      </trkpt>
      <trkpt lat="43.42669" lon="3.0537">
        <ele>205.86</ele>
        <time>2016-06-16T07:35:04Z</time>
      </trkpt>
      <trkpt lat="43.42667" lon="3.05374">
        <ele>205.86</ele>
        <time>2016-06-16T07:35:18Z</time>
      </trkpt>
      <trkpt lat="43.42665" lon="3.05379">
        <ele>205.38</ele>
        <time>2016-06-16T07:35:36Z</time>
      </trkpt>
      <trkpt lat="43.42656" lon="3.05409">
        <ele>206.34</ele>
        <time>2016-06-16T07:36:00Z</time>
      </trkpt>
      <trkpt lat="43.42648" lon="3.05431">
        <ele>206.34</ele>
        <time>2016-06-16T07:36:35Z</time>
      </trkpt>
      <trkpt lat="43.42631" lon="3.05471">
        <ele>207.3</ele>
        <time>2016-06-16T07:36:49Z</time>
      </trkpt>
      <trkpt lat="43.42619" lon="3.05549">
        <ele>209.7</ele>
        <time>2016-06-16T07:37:13Z</time>
      </trkpt>
      <trkpt lat="43.42623" lon="3.05585">
        <ele>211.15</ele>
        <time>2016-06-16T07:37:25Z</time>
      </trkpt>
      <trkpt lat="43.42619" lon="3.05593">
        <ele>212.11</ele>
        <time>2016-06-16T07:37:29Z</time>
      </trkpt>
      <trkpt lat="43.42596" lon="3.05614">
        <ele>215.95</ele>
        <time>2016-06-16T07:37:43Z</time>
      </trkpt>
      <trkpt lat="43.42575" lon="3.0565">
        <ele>218.84</ele>
        <time>2016-06-16T07:38:00Z</time>
      </trkpt>
      <trkpt lat="43.42566" lon="3.05686">
        <ele>222.2</ele>
        <time>2016-06-16T07:38:14Z</time>
      </trkpt>
      <trkpt lat="43.42541" lon="3.05686">
        <ele>222.68</ele>
        <time>2016-06-16T07:38:27Z</time>
      </trkpt>
      <trkpt lat="43.42506" lon="3.05687">
        <ele>224.61</ele>
        <time>2016-06-16T07:38:47Z</time>
      </trkpt>
      <trkpt lat="43.42476" lon="3.05756">
        <ele>226.53</ele>
        <time>2016-06-16T07:39:13Z</time>
      </trkpt>
      <trkpt lat="43.42467" lon="3.05824">
        <ele>225.57</ele>
        <time>2016-06-16T07:39:29Z</time>
      </trkpt>
      <trkpt lat="43.42436" lon="3.05866">
        <ele>224.61</ele>
        <time>2016-06-16T07:39:41Z</time>
      </trkpt>
      <trkpt lat="43.42386" lon="3.05884">
        <ele>221.24</ele>
        <time>2016-06-16T07:39:52Z</time>
      </trkpt>
      <trkpt lat="43.42372" lon="3.05895">
        <ele>220.76</ele>
        <time>2016-06-16T07:39:55Z</time>
      </trkpt>
      <trkpt lat="43.42374" lon="3.05921">
        <ele>220.28</ele>
        <time>2016-06-16T07:40:02Z</time>
      </trkpt>
      <trkpt lat="43.42446" lon="3.05961">
        <ele>223.64</ele>
        <time>2016-06-16T07:40:27Z</time>
      </trkpt>
      <trkpt lat="43.42497" lon="3.06014">
        <ele>222.2</ele>
        <time>2016-06-16T07:40:45Z</time>
      </trkpt>
      <trkpt lat="43.42505" lon="3.06021">
        <ele>221.72</ele>
        <time>2016-06-16T07:40:47Z</time>
      </trkpt>
      <trkpt lat="43.42513" lon="3.06072">
        <ele>219.8</ele>
        <time>2016-06-16T07:40:55Z</time>
      </trkpt>
      <trkpt lat="43.42495" lon="3.06146">
        <ele>220.28</ele>
        <time>2016-06-16T07:41:08Z</time>
      </trkpt>
      <trkpt lat="43.42485" lon="3.06176">
        <ele>219.32</ele>
        <time>2016-06-16T07:41:13Z</time>
      </trkpt>
      <trkpt lat="43.42455" lon="3.06254">
        <ele>219.32</ele>
        <time>2016-06-16T07:41:28Z</time>
      </trkpt>
      <trkpt lat="43.4243" lon="3.06333">
        <ele>218.84</ele>
        <time>2016-06-16T07:41:42Z</time>
      </trkpt>
      <trkpt lat="43.42408" lon="3.06352">
        <ele>218.84</ele>
        <time>2016-06-16T07:41:48Z</time>
      </trkpt>
      <trkpt lat="43.42389" lon="3.06361">
        <ele>219.8</ele>
        <time>2016-06-16T07:41:53Z</time>
      </trkpt>
      <trkpt lat="43.42348" lon="3.06456">
        <ele>218.84</ele>
        <time>2016-06-16T07:42:10Z</time>
      </trkpt>
      <trkpt lat="43.42322" lon="3.06516">
        <ele>218.36</ele>
        <time>2016-06-16T07:42:20Z</time>
      </trkpt>
      <trkpt lat="43.42307" lon="3.06533">
        <ele>218.36</ele>
        <time>2016-06-16T07:42:24Z</time>
      </trkpt>
      <trkpt lat="43.42216" lon="3.06602">
        <ele>214.99</ele>
        <time>2016-06-16T07:42:42Z</time>
      </trkpt>
      <trkpt lat="43.42175" lon="3.06653">
        <ele>214.51</ele>
        <time>2016-06-16T07:42:51Z</time>
      </trkpt>
      <trkpt lat="43.42127" lon="3.06764">
        <ele>213.55</ele>
        <time>2016-06-16T07:43:08Z</time>
      </trkpt>
      <trkpt lat="43.42107" lon="3.06836">
        <ele>214.99</ele>
        <time>2016-06-16T07:43:19Z</time>
      </trkpt>
      <trkpt lat="43.42115" lon="3.06945">
        <ele>216.43</ele>
        <time>2016-06-16T07:43:38Z</time>
      </trkpt>
      <trkpt lat="43.42117" lon="3.06957">
        <ele>216.43</ele>
        <time>2016-06-16T07:43:40Z</time>
      </trkpt>
      <trkpt lat="43.42125" lon="3.06979">
        <ele>215.95</ele>
        <time>2016-06-16T07:43:44Z</time>
      </trkpt>
      <trkpt lat="43.42171" lon="3.0707">
        <ele>212.59</ele>
        <time>2016-06-16T07:43:59Z</time>
      </trkpt>
      <trkpt lat="43.4218" lon="3.07089">
        <ele>212.11</ele>
        <time>2016-06-16T07:44:02Z</time>
      </trkpt>
      <trkpt lat="43.42178" lon="3.07117">
        <ele>211.63</ele>
        <time>2016-06-16T07:44:06Z</time>
      </trkpt>
      <trkpt lat="43.42137" lon="3.07182">
        <ele>208.74</ele>
        <time>2016-06-16T07:44:16Z</time>
      </trkpt>
      <trkpt lat="43.42121" lon="3.07227">
        <ele>206.34</ele>
        <time>2016-06-16T07:44:21Z</time>
      </trkpt>
      <trkpt lat="43.42111" lon="3.07282">
        <ele>203.46</ele>
        <time>2016-06-16T07:44:26Z</time>
      </trkpt>
      <trkpt lat="43.42085" lon="3.07417">
        <ele>201.05</ele>
        <time>2016-06-16T07:44:40Z</time>
      </trkpt>
      <trkpt lat="43.42073" lon="3.07449">
        <ele>200.57</ele>
        <time>2016-06-16T07:44:44Z</time>
      </trkpt>
      <trkpt lat="43.42041" lon="3.07534">
        <ele>197.21</ele>
        <time>2016-06-16T07:44:54Z</time>
      </trkpt>
      <trkpt lat="43.42029" lon="3.07565">
        <ele>195.28</ele>
        <time>2016-06-16T07:44:57Z</time>
      </trkpt>
      <trkpt lat="43.42013" lon="3.07606">
        <ele>193.36</ele>
        <time>2016-06-16T07:45:01Z</time>
      </trkpt>
      <trkpt lat="43.42007" lon="3.07627">
        <ele>192.88</ele>
        <time>2016-06-16T07:45:03Z</time>
      </trkpt>
      <trkpt lat="43.42004" lon="3.07754">
        <ele>192.88</ele>
        <time>2016-06-16T07:45:16Z</time>
      </trkpt>
      <trkpt lat="43.42013" lon="3.07862">
        <ele>195.28</ele>
        <time>2016-06-16T07:45:32Z</time>
      </trkpt>
      <trkpt lat="43.42021" lon="3.0792">
        <ele>191.92</ele>
        <time>2016-06-16T07:45:39Z</time>
      </trkpt>
      <trkpt lat="43.42022" lon="3.07959">
        <ele>188.56</ele>
        <time>2016-06-16T07:45:43Z</time>
      </trkpt>
      <trkpt lat="43.42023" lon="3.0797">
        <ele>188.56</ele>
        <time>2016-06-16T07:45:44Z</time>
      </trkpt>
      <trkpt lat="43.42023" lon="3.08005">
        <ele>185.67</ele>
        <time>2016-06-16T07:45:47Z</time>
      </trkpt>
      <trkpt lat="43.42023" lon="3.08052">
        <ele>182.31</ele>
        <time>2016-06-16T07:45:51Z</time>
      </trkpt>
      <trkpt lat="43.42023" lon="3.08114">
        <ele>179.42</ele>
        <time>2016-06-16T07:45:57Z</time>
      </trkpt>
      <trkpt lat="43.42023" lon="3.08122">
        <ele>179.42</ele>
        <time>2016-06-16T07:45:58Z</time>
      </trkpt>
      <trkpt lat="43.42018" lon="3.08156">
        <ele>177.98</ele>
        <time>2016-06-16T07:46:07Z</time>
      </trkpt>
      <trkpt lat="43.42018" lon="3.08169">
        <ele>177.5</ele>
        <time>2016-06-16T07:46:10Z</time>
      </trkpt>
      <trkpt lat="43.42026" lon="3.08239">
        <ele>178.94</ele>
        <time>2016-06-16T07:46:24Z</time>
      </trkpt>
      <trkpt lat="43.42029" lon="3.0825">
        <ele>178.94</ele>
        <time>2016-06-16T07:46:26Z</time>
      </trkpt>
      <trkpt lat="43.42028" lon="3.08365">
        <ele>177.5</ele>
        <time>2016-06-16T07:46:45Z</time>
      </trkpt>
      <trkpt lat="43.42049" lon="3.08461">
        <ele>176.06</ele>
        <time>2016-06-16T07:47:02Z</time>
      </trkpt>
      <trkpt lat="43.42058" lon="3.08542">
        <ele>173.17</ele>
        <time>2016-06-16T07:47:14Z</time>
      </trkpt>
      <trkpt lat="43.42059" lon="3.0855">
        <ele>173.17</ele>
        <time>2016-06-16T07:47:15Z</time>
      </trkpt>
      <trkpt lat="43.42058" lon="3.08582">
        <ele>171.25</ele>
        <time>2016-06-16T07:47:19Z</time>
      </trkpt>
      <trkpt lat="43.42051" lon="3.08604">
        <ele>170.77</ele>
        <time>2016-06-16T07:47:22Z</time>
      </trkpt>
      <trkpt lat="43.42052" lon="3.08631">
        <ele>170.29</ele>
        <time>2016-06-16T07:47:26Z</time>
      </trkpt>
      <trkpt lat="43.42067" lon="3.08671">
        <ele>169.33</ele>
        <time>2016-06-16T07:47:32Z</time>
      </trkpt>
      <trkpt lat="43.42062" lon="3.08743">
        <ele>166.45</ele>
        <time>2016-06-16T07:47:41Z</time>
      </trkpt>
      <trkpt lat="43.42042" lon="3.08772">
        <ele>165</ele>
        <time>2016-06-16T07:47:45Z</time>
      </trkpt>
      <trkpt lat="43.42027" lon="3.08795">
        <ele>161.64</ele>
        <time>2016-06-16T07:47:48Z</time>
      </trkpt>
      <trkpt lat="43.41999" lon="3.08818">
        <ele>159.24</ele>
        <time>2016-06-16T07:47:52Z</time>
      </trkpt>
      <trkpt lat="43.41975" lon="3.08847">
        <ele>155.87</ele>
        <time>2016-06-16T07:47:56Z</time>
      </trkpt>
      <trkpt lat="43.4196" lon="3.08877">
        <ele>153.95</ele>
        <time>2016-06-16T07:47:59Z</time>
      </trkpt>
      <trkpt lat="43.4194" lon="3.08944">
        <ele>150.58</ele>
        <time>2016-06-16T07:48:05Z</time>
      </trkpt>
      <trkpt lat="43.41937" lon="3.08989">
        <ele>149.62</ele>
        <time>2016-06-16T07:48:09Z</time>
      </trkpt>
      <trkpt lat="43.41934" lon="3.09052">
        <ele>148.18</ele>
        <time>2016-06-16T07:48:15Z</time>
      </trkpt>
      <trkpt lat="43.41927" lon="3.09088">
        <ele>147.7</ele>
        <time>2016-06-16T07:48:19Z</time>
      </trkpt>
      <trkpt lat="43.41937" lon="3.09119">
        <ele>146.74</ele>
        <time>2016-06-16T07:48:24Z</time>
      </trkpt>
      <trkpt lat="43.4196" lon="3.09137">
        <ele>147.22</ele>
        <time>2016-06-16T07:48:29Z</time>
      </trkpt>
      <trkpt lat="43.4197" lon="3.09159">
        <ele>148.18</ele>
        <time>2016-06-16T07:48:33Z</time>
      </trkpt>
      <trkpt lat="43.41972" lon="3.0918">
        <ele>149.14</ele>
        <time>2016-06-16T07:48:37Z</time>
      </trkpt>
      <trkpt lat="43.41971" lon="3.09212">
        <ele>151.06</ele>
        <time>2016-06-16T07:48:48Z</time>
      </trkpt>
      <trkpt lat="43.41983" lon="3.09224">
        <ele>151.06</ele>
        <time>2016-06-16T07:48:54Z</time>
      </trkpt>
      <trkpt lat="43.42041" lon="3.09222">
        <ele>149.14</ele>
        <time>2016-06-16T07:49:11Z</time>
      </trkpt>
      <trkpt lat="43.42072" lon="3.09279">
        <ele>150.1</ele>
        <time>2016-06-16T07:49:26Z</time>
      </trkpt>
      <trkpt lat="43.42101" lon="3.09356">
        <ele>150.1</ele>
        <time>2016-06-16T07:49:43Z</time>
      </trkpt>
      <trkpt lat="43.42103" lon="3.09368">
        <ele>149.62</ele>
        <time>2016-06-16T07:49:45Z</time>
      </trkpt>
      <trkpt lat="43.42098" lon="3.0941">
        <ele>149.14</ele>
        <time>2016-06-16T07:49:52Z</time>
      </trkpt>
      <trkpt lat="43.42094" lon="3.09421">
        <ele>149.14</ele>
        <time>2016-06-16T07:49:54Z</time>
      </trkpt>
      <trkpt lat="43.42077" lon="3.09539">
        <ele>147.7</ele>
        <time>2016-06-16T07:50:14Z</time>
      </trkpt>
      <trkpt lat="43.42055" lon="3.09651">
        <ele>148.18</ele>
        <time>2016-06-16T07:50:34Z</time>
      </trkpt>
      <trkpt lat="43.42052" lon="3.09672">
        <ele>148.66</ele>
        <time>2016-06-16T07:50:40Z</time>
      </trkpt>
      <trkpt lat="43.42099" lon="3.09692">
        <ele>145.3</ele>
        <time>2016-06-16T07:50:51Z</time>
      </trkpt>
      <trkpt lat="43.42117" lon="3.09727">
        <ele>143.85</ele>
        <time>2016-06-16T07:51:02Z</time>
      </trkpt>
      <trkpt lat="43.42127" lon="3.09771">
        <ele>141.93</ele>
        <time>2016-06-16T07:51:17Z</time>
      </trkpt>
      <trkpt lat="43.42116" lon="3.09818">
        <ele>142.41</ele>
        <time>2016-06-16T07:51:33Z</time>
      </trkpt>
      <trkpt lat="43.42088" lon="3.09843">
        <ele>144.34</ele>
        <time>2016-06-16T07:51:47Z</time>
      </trkpt>
      <trkpt lat="43.4207" lon="3.09855">
        <ele>147.22</ele>
        <time>2016-06-16T07:51:58Z</time>
      </trkpt>
      <trkpt lat="43.42053" lon="3.09865">
        <ele>150.1</ele>
        <time>2016-06-16T07:52:08Z</time>
      </trkpt>
      <trkpt lat="43.42037" lon="3.09894">
        <ele>152.99</ele>
        <time>2016-06-16T07:52:24Z</time>
      </trkpt>
      <trkpt lat="43.42055" lon="3.09942">
        <ele>152.51</ele>
        <time>2016-06-16T07:52:38Z</time>
      </trkpt>
      <trkpt lat="43.42072" lon="3.10013">
        <ele>154.43</ele>
        <time>2016-06-16T07:52:56Z</time>
      </trkpt>
      <trkpt lat="43.42085" lon="3.101">
        <ele>152.99</ele>
        <time>2016-06-16T07:53:13Z</time>
      </trkpt>
      <trkpt lat="43.42099" lon="3.10142">
        <ele>152.03</ele>
        <time>2016-06-16T07:53:22Z</time>
      </trkpt>
      <trkpt lat="43.42103" lon="3.10183">
        <ele>149.62</ele>
        <time>2016-06-16T07:53:28Z</time>
      </trkpt>
      <trkpt lat="43.42113" lon="3.10212">
        <ele>147.22</ele>
        <time>2016-06-16T07:53:32Z</time>
      </trkpt>
      <trkpt lat="43.42118" lon="3.10218">
        <ele>146.74</ele>
        <time>2016-06-16T07:53:33Z</time>
      </trkpt>
      <trkpt lat="43.42149" lon="3.10246">
        <ele>142.41</ele>
        <time>2016-06-16T07:53:38Z</time>
      </trkpt>
      <trkpt lat="43.42156" lon="3.10251">
        <ele>142.41</ele>
        <time>2016-06-16T07:53:39Z</time>
      </trkpt>
      <trkpt lat="43.42185" lon="3.10276">
        <ele>139.53</ele>
        <time>2016-06-16T07:53:43Z</time>
      </trkpt>
      <trkpt lat="43.42245" lon="3.10311">
        <ele>138.09</ele>
        <time>2016-06-16T07:53:53Z</time>
      </trkpt>
      <trkpt lat="43.42249" lon="3.10314">
        <ele>138.57</ele>
        <time>2016-06-16T07:53:54Z</time>
      </trkpt>
      <trkpt lat="43.42264" lon="3.10332">
        <ele>140.01</ele>
        <time>2016-06-16T07:53:58Z</time>
      </trkpt>
      <trkpt lat="43.42294" lon="3.10383">
        <ele>143.85</ele>
        <time>2016-06-16T07:54:09Z</time>
      </trkpt>
      <trkpt lat="43.42332" lon="3.10446">
        <ele>146.74</ele>
        <time>2016-06-16T07:54:28Z</time>
      </trkpt>
      <trkpt lat="43.42347" lon="3.10512">
        <ele>147.7</ele>
        <time>2016-06-16T07:54:44Z</time>
      </trkpt>
      <trkpt lat="43.42347" lon="3.10517">
        <ele>147.7</ele>
        <time>2016-06-16T07:54:45Z</time>
      </trkpt>
      <trkpt lat="43.42346" lon="3.1058">
        <ele>143.85</ele>
        <time>2016-06-16T07:54:53Z</time>
      </trkpt>
      <trkpt lat="43.42344" lon="3.10607">
        <ele>141.93</ele>
        <time>2016-06-16T07:54:56Z</time>
      </trkpt>
      <trkpt lat="43.42344" lon="3.10615">
        <ele>141.93</ele>
        <time>2016-06-16T07:54:57Z</time>
      </trkpt>
      <trkpt lat="43.42358" lon="3.10651">
        <ele>143.37</ele>
        <time>2016-06-16T07:55:04Z</time>
      </trkpt>
      <trkpt lat="43.42388" lon="3.10679">
        <ele>140.49</ele>
        <time>2016-06-16T07:55:10Z</time>
      </trkpt>
      <trkpt lat="43.42393" lon="3.10684">
        <ele>140.01</ele>
        <time>2016-06-16T07:55:11Z</time>
      </trkpt>
      <trkpt lat="43.42402" lon="3.10729">
        <ele>140.49</ele>
        <time>2016-06-16T07:55:19Z</time>
      </trkpt>
      <trkpt lat="43.42413" lon="3.108">
        <ele>140.01</ele>
        <time>2016-06-16T07:55:31Z</time>
      </trkpt>
      <trkpt lat="43.42432" lon="3.10856">
        <ele>136.64</ele>
        <time>2016-06-16T07:55:38Z</time>
      </trkpt>
      <trkpt lat="43.42434" lon="3.10864">
        <ele>136.64</ele>
        <time>2016-06-16T07:55:39Z</time>
      </trkpt>
      <trkpt lat="43.42443" lon="3.10896">
        <ele>133.76</ele>
        <time>2016-06-16T07:55:42Z</time>
      </trkpt>
      <trkpt lat="43.4245" lon="3.10929">
        <ele>129.92</ele>
        <time>2016-06-16T07:55:45Z</time>
      </trkpt>
      <trkpt lat="43.42469" lon="3.10935">
        <ele>127.99</ele>
        <time>2016-06-16T07:55:50Z</time>
      </trkpt>
      <trkpt lat="43.42485" lon="3.10927">
        <ele>125.59</ele>
        <time>2016-06-16T07:55:53Z</time>
      </trkpt>
      <trkpt lat="43.42507" lon="3.10918">
        <ele>122.22</ele>
        <time>2016-06-16T07:55:56Z</time>
      </trkpt>
      <trkpt lat="43.42514" lon="3.10914">
        <ele>120.3</ele>
        <time>2016-06-16T07:55:57Z</time>
      </trkpt>
      <trkpt lat="43.4253" lon="3.10894">
        <ele>115.98</ele>
        <time>2016-06-16T07:56:00Z</time>
      </trkpt>
      <trkpt lat="43.42534" lon="3.10885">
        <ele>115.5</ele>
        <time>2016-06-16T07:56:01Z</time>
      </trkpt>
      <trkpt lat="43.42553" lon="3.10858">
        <ele>110.69</ele>
        <time>2016-06-16T07:56:04Z</time>
      </trkpt>
      <trkpt lat="43.42569" lon="3.10844">
        <ele>106.84</ele>
        <time>2016-06-16T07:56:06Z</time>
      </trkpt>
      <trkpt lat="43.42587" lon="3.10829">
        <ele>102.52</ele>
        <time>2016-06-16T07:56:08Z</time>
      </trkpt>
      <trkpt lat="43.42596" lon="3.1082">
        <ele>102.52</ele>
        <time>2016-06-16T07:56:09Z</time>
      </trkpt>
      <trkpt lat="43.42612" lon="3.10802">
        <ele>98.19</ele>
        <time>2016-06-16T07:56:11Z</time>
      </trkpt>
      <trkpt lat="43.42637" lon="3.10757">
        <ele>93.39</ele>
        <time>2016-06-16T07:56:15Z</time>
      </trkpt>
      <trkpt lat="43.42643" lon="3.10747">
        <ele>93.39</ele>
        <time>2016-06-16T07:56:16Z</time>
      </trkpt>
      <trkpt lat="43.42665" lon="3.10726">
        <ele>90.5</ele>
        <time>2016-06-16T07:56:19Z</time>
      </trkpt>
      <trkpt lat="43.42689" lon="3.10713">
        <ele>89.06</ele>
        <time>2016-06-16T07:56:22Z</time>
      </trkpt>
      <trkpt lat="43.4273" lon="3.10668">
        <ele>84.73</ele>
        <time>2016-06-16T07:56:28Z</time>
      </trkpt>
      <trkpt lat="43.42738" lon="3.10661">
        <ele>83.77</ele>
        <time>2016-06-16T07:56:29Z</time>
      </trkpt>
      <trkpt lat="43.42754" lon="3.10652">
        <ele>82.81</ele>
        <time>2016-06-16T07:56:31Z</time>
      </trkpt>
      <trkpt lat="43.42796" lon="3.10658">
        <ele>80.41</ele>
        <time>2016-06-16T07:56:36Z</time>
      </trkpt>
      <trkpt lat="43.42829" lon="3.10655">
        <ele>80.41</ele>
        <time>2016-06-16T07:56:41Z</time>
      </trkpt>
      <trkpt lat="43.4284" lon="3.10641">
        <ele>78.48</ele>
        <time>2016-06-16T07:56:43Z</time>
      </trkpt>
      <trkpt lat="43.42868" lon="3.10617">
        <ele>74.64</ele>
        <time>2016-06-16T07:56:47Z</time>
      </trkpt>
      <trkpt lat="43.42895" lon="3.10611">
        <ele>71.76</ele>
        <time>2016-06-16T07:56:50Z</time>
      </trkpt>
      <trkpt lat="43.42915" lon="3.10611">
        <ele>70.31</ele>
        <time>2016-06-16T07:56:52Z</time>
      </trkpt>
      <trkpt lat="43.42931" lon="3.10622">
        <ele>69.35</ele>
        <time>2016-06-16T07:56:56Z</time>
      </trkpt>
      <trkpt lat="43.42935" lon="3.10627">
        <ele>71.27</ele>
        <time>2016-06-16T07:56:59Z</time>
      </trkpt>
      <trkpt lat="43.42967" lon="3.10659">
        <ele>70.79</ele>
        <time>2016-06-16T07:57:11Z</time>
      </trkpt>
      <trkpt lat="43.43014" lon="3.10692">
        <ele>68.39</ele>
        <time>2016-06-16T07:57:23Z</time>
      </trkpt>
      <trkpt lat="43.43046" lon="3.10712">
        <ele>64.07</ele>
        <time>2016-06-16T07:57:31Z</time>
      </trkpt>
      <trkpt lat="43.43066" lon="3.10694">
        <ele>61.18</ele>
        <time>2016-06-16T07:57:35Z</time>
      </trkpt>
      <trkpt lat="43.43083" lon="3.10666">
        <ele>56.37</ele>
        <time>2016-06-16T07:57:38Z</time>
      </trkpt>
      <trkpt lat="43.43095" lon="3.10645">
        <ele>53.01</ele>
        <time>2016-06-16T07:57:40Z</time>
      </trkpt>
      <trkpt lat="43.43112" lon="3.10618">
        <ele>51.57</ele>
        <time>2016-06-16T07:57:43Z</time>
      </trkpt>
      <trkpt lat="43.43137" lon="3.10598">
        <ele>54.45</ele>
        <time>2016-06-16T07:57:48Z</time>
      </trkpt>
      <trkpt lat="43.43145" lon="3.10595">
        <ele>55.41</ele>
        <time>2016-06-16T07:57:50Z</time>
      </trkpt>
      <trkpt lat="43.43161" lon="3.10593">
        <ele>56.86</ele>
        <time>2016-06-16T07:57:54Z</time>
      </trkpt>
      <trkpt lat="43.43168" lon="3.1059">
        <ele>57.34</ele>
        <time>2016-06-16T07:57:56Z</time>
      </trkpt>
      <trkpt lat="43.43201" lon="3.10564">
        <ele>57.82</ele>
        <time>2016-06-16T07:58:09Z</time>
      </trkpt>
      <trkpt lat="43.432" lon="3.10564">
        <ele>57.34</ele>
        <time>2016-06-16T08:00:30Z</time>
      </trkpt>
      <trkpt lat="43.43217" lon="3.10551">
        <ele>56.37</ele>
        <time>2016-06-16T08:02:15Z</time>
      </trkpt>
      <trkpt lat="43.43262" lon="3.10499">
        <ele>56.86</ele>
        <time>2016-06-16T08:02:35Z</time>
      </trkpt>
      <trkpt lat="43.43302" lon="3.10439">
        <ele>57.82</ele>
        <time>2016-06-16T08:02:56Z</time>
      </trkpt>
      <trkpt lat="43.43339" lon="3.10379">
        <ele>58.3</ele>
        <time>2016-06-16T08:03:15Z</time>
      </trkpt>
      <trkpt lat="43.43384" lon="3.10323">
        <ele>59.74</ele>
        <time>2016-06-16T08:03:36Z</time>
      </trkpt>
      <trkpt lat="43.43434" lon="3.10286">
        <ele>60.7</ele>
        <time>2016-06-16T08:03:54Z</time>
      </trkpt>
      <trkpt lat="43.43491" lon="3.10256">
        <ele>61.66</ele>
        <time>2016-06-16T08:04:14Z</time>
      </trkpt>
      <trkpt lat="43.43539" lon="3.10198">
        <ele>62.14</ele>
        <time>2016-06-16T08:04:35Z</time>
      </trkpt>
      <trkpt lat="43.43585" lon="3.10129">
        <ele>63.58</ele>
        <time>2016-06-16T08:04:58Z</time>
      </trkpt>
      <trkpt lat="43.43628" lon="3.10064">
        <ele>64.55</ele>
        <time>2016-06-16T08:05:19Z</time>
      </trkpt>
      <trkpt lat="43.43673" lon="3.09994">
        <ele>65.51</ele>
        <time>2016-06-16T08:05:42Z</time>
      </trkpt>
      <trkpt lat="43.43702" lon="3.09984">
        <ele>65.51</ele>
        <time>2016-06-16T08:05:54Z</time>
      </trkpt>
      <trkpt lat="43.43694" lon="3.10036">
        <ele>64.55</ele>
        <time>2016-06-16T08:06:05Z</time>
      </trkpt>
      <trkpt lat="43.43686" lon="3.10152">
        <ele>61.66</ele>
        <time>2016-06-16T08:06:22Z</time>
      </trkpt>
      <trkpt lat="43.43683" lon="3.10254">
        <ele>61.66</ele>
        <time>2016-06-16T08:06:39Z</time>
      </trkpt>
      <trkpt lat="43.4368" lon="3.10305">
        <ele>61.66</ele>
        <time>2016-06-16T08:06:48Z</time>
      </trkpt>
      <trkpt lat="43.43683" lon="3.10328">
        <ele>61.66</ele>
        <time>2016-06-16T08:06:52Z</time>
      </trkpt>
      <trkpt lat="43.43732" lon="3.10304">
        <ele>61.66</ele>
        <time>2016-06-16T08:07:07Z</time>
      </trkpt>
      <trkpt lat="43.43796" lon="3.10284">
        <ele>62.62</ele>
        <time>2016-06-16T08:07:25Z</time>
      </trkpt>
      <trkpt lat="43.43828" lon="3.10294">
        <ele>60.7</ele>
        <time>2016-06-16T08:07:31Z</time>
      </trkpt>
      <trkpt lat="43.43836" lon="3.10293">
        <ele>59.26</ele>
        <time>2016-06-16T08:07:33Z</time>
      </trkpt>
      <trkpt lat="43.43853" lon="3.10268">
        <ele>58.3</ele>
        <time>2016-06-16T08:07:39Z</time>
      </trkpt>
      <trkpt lat="43.43881" lon="3.1025">
        <ele>61.66</ele>
        <time>2016-06-16T08:07:52Z</time>
      </trkpt>
      <trkpt lat="43.43892" lon="3.10186">
        <ele>63.58</ele>
        <time>2016-06-16T08:08:09Z</time>
      </trkpt>
      <trkpt lat="43.43907" lon="3.10103">
        <ele>63.58</ele>
        <time>2016-06-16T08:08:31Z</time>
      </trkpt>
      <trkpt lat="43.43908" lon="3.10098">
        <ele>63.1</ele>
        <time>2016-06-16T08:08:32Z</time>
      </trkpt>
      <trkpt lat="43.43918" lon="3.10077">
        <ele>61.18</ele>
        <time>2016-06-16T08:08:36Z</time>
      </trkpt>
      <trkpt lat="43.43921" lon="3.10071">
        <ele>60.7</ele>
        <time>2016-06-16T08:08:37Z</time>
      </trkpt>
      <trkpt lat="43.43928" lon="3.1006">
        <ele>59.26</ele>
        <time>2016-06-16T08:08:39Z</time>
      </trkpt>
      <trkpt lat="43.43973" lon="3.10016">
        <ele>56.37</ele>
        <time>2016-06-16T08:08:51Z</time>
      </trkpt>
      <trkpt lat="43.43975" lon="3.10013">
        <ele>58.78</ele>
        <time>2016-06-16T08:09:07Z</time>
      </trkpt>
      <trkpt lat="43.43968" lon="3.10011">
        <ele>62.14</ele>
        <time>2016-06-16T08:09:23Z</time>
      </trkpt>
      <trkpt lat="43.43959" lon="3.09997">
        <ele>65.03</ele>
        <time>2016-06-16T08:09:39Z</time>
      </trkpt>
      <trkpt lat="43.43958" lon="3.09994">
        <ele>65.51</ele>
        <time>2016-06-16T08:09:48Z</time>
      </trkpt>
      <trkpt lat="43.43948" lon="3.09966">
        <ele>67.43</ele>
        <time>2016-06-16T08:10:02Z</time>
      </trkpt>
      <trkpt lat="43.43944" lon="3.09955">
        <ele>69.35</ele>
        <time>2016-06-16T08:10:17Z</time>
      </trkpt>
      <trkpt lat="43.43942" lon="3.09948">
        <ele>69.35</ele>
        <time>2016-06-16T08:10:29Z</time>
      </trkpt>
      <trkpt lat="43.43947" lon="3.09914">
        <ele>70.31</ele>
        <time>2016-06-16T08:10:42Z</time>
      </trkpt>
      <trkpt lat="43.43952" lon="3.09879">
        <ele>72.24</ele>
        <time>2016-06-16T08:10:55Z</time>
      </trkpt>
      <trkpt lat="43.43961" lon="3.09835">
        <ele>74.64</ele>
        <time>2016-06-16T08:11:11Z</time>
      </trkpt>
      <trkpt lat="43.43963" lon="3.09816">
        <ele>75.6</ele>
        <time>2016-06-16T08:11:20Z</time>
      </trkpt>
      <trkpt lat="43.43959" lon="3.09775">
        <ele>73.2</ele>
        <time>2016-06-16T08:11:31Z</time>
      </trkpt>
      <trkpt lat="43.43959" lon="3.09758">
        <ele>71.76</ele>
        <time>2016-06-16T08:11:35Z</time>
      </trkpt>
      <trkpt lat="43.43967" lon="3.09725">
        <ele>72.72</ele>
        <time>2016-06-16T08:11:49Z</time>
      </trkpt>
      <trkpt lat="43.43969" lon="3.09717">
        <ele>76.08</ele>
        <time>2016-06-16T08:12:08Z</time>
      </trkpt>
      <trkpt lat="43.4397" lon="3.09701">
        <ele>77.52</ele>
        <time>2016-06-16T08:12:30Z</time>
      </trkpt>
      <trkpt lat="43.43976" lon="3.09695">
        <ele>78.97</ele>
        <time>2016-06-16T08:13:35Z</time>
      </trkpt>
      <trkpt lat="43.43983" lon="3.09679">
        <ele>81.85</ele>
        <time>2016-06-16T08:13:51Z</time>
      </trkpt>
      <trkpt lat="43.43983" lon="3.09667">
        <ele>82.33</ele>
        <time>2016-06-16T08:14:06Z</time>
      </trkpt>
      <trkpt lat="43.43981" lon="3.09656">
        <ele>80.41</ele>
        <time>2016-06-16T08:14:16Z</time>
      </trkpt>
      <trkpt lat="43.43979" lon="3.09634">
        <ele>78.97</ele>
        <time>2016-06-16T08:14:26Z</time>
      </trkpt>
      <trkpt lat="43.43972" lon="3.09612">
        <ele>79.45</ele>
        <time>2016-06-16T08:14:36Z</time>
      </trkpt>
      <trkpt lat="43.43969" lon="3.0958">
        <ele>79.45</ele>
        <time>2016-06-16T08:14:47Z</time>
      </trkpt>
      <trkpt lat="43.43961" lon="3.09561">
        <ele>78</ele>
        <time>2016-06-16T08:14:54Z</time>
      </trkpt>
      <trkpt lat="43.43954" lon="3.09553">
        <ele>77.04</ele>
        <time>2016-06-16T08:15:07Z</time>
      </trkpt>
      <trkpt lat="43.43952" lon="3.09548">
        <ele>75.6</ele>
        <time>2016-06-16T08:15:49Z</time>
      </trkpt>
      <trkpt lat="43.43948" lon="3.09511">
        <ele>73.2</ele>
        <time>2016-06-16T08:15:59Z</time>
      </trkpt>
      <trkpt lat="43.43939" lon="3.09497">
        <ele>71.27</ele>
        <time>2016-06-16T08:16:08Z</time>
      </trkpt>
      <trkpt lat="43.43936" lon="3.09482">
        <ele>72.24</ele>
        <time>2016-06-16T08:16:22Z</time>
      </trkpt>
      <trkpt lat="43.43937" lon="3.09467">
        <ele>73.2</ele>
        <time>2016-06-16T08:16:33Z</time>
      </trkpt>
      <trkpt lat="43.43928" lon="3.09441">
        <ele>71.27</ele>
        <time>2016-06-16T08:16:44Z</time>
      </trkpt>
      <trkpt lat="43.43927" lon="3.09415">
        <ele>71.27</ele>
        <time>2016-06-16T08:16:53Z</time>
      </trkpt>
      <trkpt lat="43.43929" lon="3.094">
        <ele>73.68</ele>
        <time>2016-06-16T08:17:10Z</time>
      </trkpt>
      <trkpt lat="43.43927" lon="3.09368">
        <ele>72.24</ele>
        <time>2016-06-16T08:17:19Z</time>
      </trkpt>
      <trkpt lat="43.43927" lon="3.09346">
        <ele>69.83</ele>
        <time>2016-06-16T08:17:24Z</time>
      </trkpt>
      <trkpt lat="43.43925" lon="3.0933">
        <ele>67.91</ele>
        <time>2016-06-16T08:17:27Z</time>
      </trkpt>
      <trkpt lat="43.43905" lon="3.09286">
        <ele>65.03</ele>
        <time>2016-06-16T08:17:38Z</time>
      </trkpt>
      <trkpt lat="43.43889" lon="3.0928">
        <ele>64.07</ele>
        <time>2016-06-16T08:17:47Z</time>
      </trkpt>
      <trkpt lat="43.43879" lon="3.09252">
        <ele>61.18</ele>
        <time>2016-06-16T08:17:56Z</time>
      </trkpt>
      <trkpt lat="43.43889" lon="3.09205">
        <ele>60.7</ele>
        <time>2016-06-16T08:18:07Z</time>
      </trkpt>
      <trkpt lat="43.4389" lon="3.09159">
        <ele>62.14</ele>
        <time>2016-06-16T08:18:19Z</time>
      </trkpt>
      <trkpt lat="43.43881" lon="3.09147">
        <ele>59.74</ele>
        <time>2016-06-16T08:18:22Z</time>
      </trkpt>
      <trkpt lat="43.43872" lon="3.09139">
        <ele>59.26</ele>
        <time>2016-06-16T08:18:24Z</time>
      </trkpt>
      <trkpt lat="43.43859" lon="3.09115">
        <ele>56.37</ele>
        <time>2016-06-16T08:18:29Z</time>
      </trkpt>
      <trkpt lat="43.43849" lon="3.0908">
        <ele>56.37</ele>
        <time>2016-06-16T08:18:39Z</time>
      </trkpt>
      <trkpt lat="43.43834" lon="3.09034">
        <ele>58.3</ele>
        <time>2016-06-16T08:19:07Z</time>
      </trkpt>
      <trkpt lat="43.4382" lon="3.08998">
        <ele>59.26</ele>
        <time>2016-06-16T08:19:19Z</time>
      </trkpt>
      <trkpt lat="43.43816" lon="3.08965">
        <ele>61.18</ele>
        <time>2016-06-16T08:19:31Z</time>
      </trkpt>
      <trkpt lat="43.43805" lon="3.08921">
        <ele>64.55</ele>
        <time>2016-06-16T08:19:48Z</time>
      </trkpt>
      <trkpt lat="43.43809" lon="3.08878">
        <ele>67.43</ele>
        <time>2016-06-16T08:20:03Z</time>
      </trkpt>
      <trkpt lat="43.43819" lon="3.08844">
        <ele>69.83</ele>
        <time>2016-06-16T08:20:17Z</time>
      </trkpt>
      <trkpt lat="43.43826" lon="3.08803">
        <ele>71.27</ele>
        <time>2016-06-16T08:20:35Z</time>
      </trkpt>
      <trkpt lat="43.43843" lon="3.08776">
        <ele>69.35</ele>
        <time>2016-06-16T08:20:45Z</time>
      </trkpt>
      <trkpt lat="43.4385" lon="3.0876">
        <ele>66.47</ele>
        <time>2016-06-16T08:20:56Z</time>
      </trkpt>
      <trkpt lat="43.43849" lon="3.08743">
        <ele>64.07</ele>
        <time>2016-06-16T08:21:07Z</time>
      </trkpt>
      <trkpt lat="43.43851" lon="3.08709">
        <ele>58.78</ele>
        <time>2016-06-16T08:21:11Z</time>
      </trkpt>
      <trkpt lat="43.43856" lon="3.08694">
        <ele>57.82</ele>
        <time>2016-06-16T08:21:13Z</time>
      </trkpt>
      <trkpt lat="43.43882" lon="3.08631">
        <ele>56.86</ele>
        <time>2016-06-16T08:21:25Z</time>
      </trkpt>
      <trkpt lat="43.43903" lon="3.08605">
        <ele>55.89</ele>
        <time>2016-06-16T08:21:32Z</time>
      </trkpt>
      <trkpt lat="43.43903" lon="3.0856">
        <ele>54.45</ele>
        <time>2016-06-16T08:21:40Z</time>
      </trkpt>
      <trkpt lat="43.43906" lon="3.08544">
        <ele>53.97</ele>
        <time>2016-06-16T08:21:43Z</time>
      </trkpt>
      <trkpt lat="43.439" lon="3.08526">
        <ele>53.49</ele>
        <time>2016-06-16T08:21:47Z</time>
      </trkpt>
      <trkpt lat="43.43913" lon="3.08483">
        <ele>51.57</ele>
        <time>2016-06-16T08:21:56Z</time>
      </trkpt>
      <trkpt lat="43.43927" lon="3.0842">
        <ele>52.53</ele>
        <time>2016-06-16T08:22:11Z</time>
      </trkpt>
      <trkpt lat="43.43948" lon="3.08349">
        <ele>53.01</ele>
        <time>2016-06-16T08:22:28Z</time>
      </trkpt>
      <trkpt lat="43.43974" lon="3.08288">
        <ele>53.49</ele>
        <time>2016-06-16T08:22:43Z</time>
      </trkpt>
      <trkpt lat="43.4401" lon="3.08219">
        <ele>53.49</ele>
        <time>2016-06-16T08:23:00Z</time>
      </trkpt>
      <trkpt lat="43.44046" lon="3.08145">
        <ele>53.01</ele>
        <time>2016-06-16T08:23:17Z</time>
      </trkpt>
      <trkpt lat="43.44051" lon="3.08136">
        <ele>52.53</ele>
        <time>2016-06-16T08:23:19Z</time>
      </trkpt>
      <trkpt lat="43.44085" lon="3.08077">
        <ele>53.01</ele>
        <time>2016-06-16T08:23:33Z</time>
      </trkpt>
      <trkpt lat="43.4412" lon="3.0803">
        <ele>51.57</ele>
        <time>2016-06-16T08:23:46Z</time>
      </trkpt>
      <trkpt lat="43.44142" lon="3.07997">
        <ele>52.53</ele>
        <time>2016-06-16T08:23:56Z</time>
      </trkpt>
      <trkpt lat="43.44179" lon="3.07974">
        <ele>53.01</ele>
        <time>2016-06-16T08:24:08Z</time>
      </trkpt>
      <trkpt lat="43.44209" lon="3.07932">
        <ele>53.49</ele>
        <time>2016-06-16T08:24:21Z</time>
      </trkpt>
      <trkpt lat="43.44244" lon="3.07889">
        <ele>54.45</ele>
        <time>2016-06-16T08:24:37Z</time>
      </trkpt>
      <trkpt lat="43.44288" lon="3.07824">
        <ele>54.93</ele>
        <time>2016-06-16T08:24:57Z</time>
      </trkpt>
      <trkpt lat="43.44331" lon="3.07773">
        <ele>54.93</ele>
        <time>2016-06-16T08:25:14Z</time>
      </trkpt>
      <trkpt lat="43.44378" lon="3.07729">
        <ele>55.41</ele>
        <time>2016-06-16T08:25:32Z</time>
      </trkpt>
      <trkpt lat="43.44389" lon="3.07733">
        <ele>55.89</ele>
        <time>2016-06-16T08:25:36Z</time>
      </trkpt>
      <trkpt lat="43.44431" lon="3.07785">
        <ele>57.34</ele>
        <time>2016-06-16T08:25:55Z</time>
      </trkpt>
      <trkpt lat="43.4445" lon="3.07814">
        <ele>59.26</ele>
        <time>2016-06-16T08:26:07Z</time>
      </trkpt>
      <trkpt lat="43.44477" lon="3.07774">
        <ele>60.22</ele>
        <time>2016-06-16T08:26:25Z</time>
      </trkpt>
      <trkpt lat="43.445" lon="3.07722">
        <ele>59.74</ele>
        <time>2016-06-16T08:26:45Z</time>
      </trkpt>
      <trkpt lat="43.44522" lon="3.07652">
        <ele>59.26</ele>
        <time>2016-06-16T08:27:03Z</time>
      </trkpt>
      <trkpt lat="43.44557" lon="3.07596">
        <ele>59.26</ele>
        <time>2016-06-16T08:27:21Z</time>
      </trkpt>
      <trkpt lat="43.44592" lon="3.07561">
        <ele>59.26</ele>
        <time>2016-06-16T08:27:35Z</time>
      </trkpt>
      <trkpt lat="43.44636" lon="3.07526">
        <ele>59.74</ele>
        <time>2016-06-16T08:27:51Z</time>
      </trkpt>
      <trkpt lat="43.44677" lon="3.07474">
        <ele>59.26</ele>
        <time>2016-06-16T08:28:07Z</time>
      </trkpt>
      <trkpt lat="43.44725" lon="3.07439">
        <ele>59.26</ele>
        <time>2016-06-16T08:28:22Z</time>
      </trkpt>
      <trkpt lat="43.44734" lon="3.07441">
        <ele>58.78</ele>
        <time>2016-06-16T08:28:24Z</time>
      </trkpt>
      <trkpt lat="43.44761" lon="3.07415">
        <ele>56.37</ele>
        <time>2016-06-16T08:28:30Z</time>
      </trkpt>
      <trkpt lat="43.44766" lon="3.07403">
        <ele>55.89</ele>
        <time>2016-06-16T08:28:32Z</time>
      </trkpt>
      <trkpt lat="43.44799" lon="3.07354">
        <ele>57.82</ele>
        <time>2016-06-16T08:28:45Z</time>
      </trkpt>
      <trkpt lat="43.44841" lon="3.0729">
        <ele>56.86</ele>
        <time>2016-06-16T08:29:01Z</time>
      </trkpt>
      <trkpt lat="43.44878" lon="3.07236">
        <ele>56.37</ele>
        <time>2016-06-16T08:29:14Z</time>
      </trkpt>
      <trkpt lat="43.4492" lon="3.07182">
        <ele>57.34</ele>
        <time>2016-06-16T08:29:29Z</time>
      </trkpt>
      <trkpt lat="43.44966" lon="3.07147">
        <ele>58.3</ele>
        <time>2016-06-16T08:29:44Z</time>
      </trkpt>
      <trkpt lat="43.45" lon="3.07115">
        <ele>58.78</ele>
        <time>2016-06-16T08:29:56Z</time>
      </trkpt>
      <trkpt lat="43.45054" lon="3.07065">
        <ele>58.78</ele>
        <time>2016-06-16T08:30:14Z</time>
      </trkpt>
      <trkpt lat="43.45089" lon="3.07023">
        <ele>58.3</ele>
        <time>2016-06-16T08:30:28Z</time>
      </trkpt>
      <trkpt lat="43.45138" lon="3.06957">
        <ele>57.34</ele>
        <time>2016-06-16T08:30:46Z</time>
      </trkpt>
      <trkpt lat="43.45213" lon="3.06882">
        <ele>56.86</ele>
        <time>2016-06-16T08:31:10Z</time>
      </trkpt>
      <trkpt lat="43.45283" lon="3.0681">
        <ele>58.3</ele>
        <time>2016-06-16T08:31:34Z</time>
      </trkpt>
      <trkpt lat="43.45341" lon="3.0673">
        <ele>58.78</ele>
        <time>2016-06-16T08:31:56Z</time>
      </trkpt>
      <trkpt lat="43.45406" lon="3.06641">
        <ele>60.22</ele>
        <time>2016-06-16T08:32:23Z</time>
      </trkpt>
      <trkpt lat="43.45443" lon="3.06543">
        <ele>59.26</ele>
        <time>2016-06-16T08:32:43Z</time>
      </trkpt>
      <trkpt lat="43.45467" lon="3.06475">
        <ele>58.78</ele>
        <time>2016-06-16T08:32:57Z</time>
      </trkpt>
      <trkpt lat="43.45523" lon="3.06392">
        <ele>59.26</ele>
        <time>2016-06-16T08:33:18Z</time>
      </trkpt>
      <trkpt lat="43.45589" lon="3.06287">
        <ele>59.74</ele>
        <time>2016-06-16T08:33:45Z</time>
      </trkpt>
      <trkpt lat="43.45624" lon="3.06235">
        <ele>61.18</ele>
        <time>2016-06-16T08:34:02Z</time>
      </trkpt>
      <trkpt lat="43.45649" lon="3.0626">
        <ele>60.7</ele>
        <time>2016-06-16T08:34:11Z</time>
      </trkpt>
      <trkpt lat="43.45664" lon="3.0627">
        <ele>60.22</ele>
        <time>2016-06-16T08:34:15Z</time>
      </trkpt>
      <trkpt lat="43.45706" lon="3.06275">
        <ele>60.22</ele>
        <time>2016-06-16T08:34:27Z</time>
      </trkpt>
      <trkpt lat="43.45745" lon="3.06287">
        <ele>61.18</ele>
        <time>2016-06-16T08:34:39Z</time>
      </trkpt>
      <trkpt lat="43.45777" lon="3.06322">
        <ele>62.14</ele>
        <time>2016-06-16T08:34:52Z</time>
      </trkpt>
      <trkpt lat="43.45805" lon="3.06398">
        <ele>62.14</ele>
        <time>2016-06-16T08:35:11Z</time>
      </trkpt>
      <trkpt lat="43.45835" lon="3.06427">
        <ele>61.66</ele>
        <time>2016-06-16T08:35:22Z</time>
      </trkpt>
      <trkpt lat="43.45837" lon="3.06413">
        <ele>62.62</ele>
        <time>2016-06-16T08:35:30Z</time>
      </trkpt>
      <trkpt lat="43.45831" lon="3.06398">
        <ele>65.03</ele>
        <time>2016-06-16T08:35:37Z</time>
      </trkpt>
      <trkpt lat="43.45834" lon="3.06386">
        <ele>66.95</ele>
        <time>2016-06-16T08:35:42Z</time>
      </trkpt>
      <trkpt lat="43.45845" lon="3.06355">
        <ele>70.31</ele>
        <time>2016-06-16T08:35:55Z</time>
      </trkpt>
      <trkpt lat="43.45821" lon="3.06328">
        <ele>71.27</ele>
        <time>2016-06-16T08:36:10Z</time>
      </trkpt>
      <trkpt lat="43.45796" lon="3.06301">
        <ele>71.27</ele>
        <time>2016-06-16T08:36:21Z</time>
      </trkpt>
      <trkpt lat="43.45805" lon="3.06259">
        <ele>74.16</ele>
        <time>2016-06-16T08:36:35Z</time>
      </trkpt>
      <trkpt lat="43.45813" lon="3.06248">
        <ele>75.6</ele>
        <time>2016-06-16T08:36:41Z</time>
      </trkpt>
      <trkpt lat="43.45853" lon="3.06243">
        <ele>78.97</ele>
        <time>2016-06-16T08:37:00Z</time>
      </trkpt>
      <trkpt lat="43.45883" lon="3.06235">
        <ele>80.41</ele>
        <time>2016-06-16T08:37:15Z</time>
      </trkpt>
      <trkpt lat="43.45909" lon="3.06206">
        <ele>82.33</ele>
        <time>2016-06-16T08:37:31Z</time>
      </trkpt>
      <trkpt lat="43.45916" lon="3.06188">
        <ele>85.21</ele>
        <time>2016-06-16T08:37:40Z</time>
      </trkpt>
      <trkpt lat="43.45926" lon="3.06165">
        <ele>88.1</ele>
        <time>2016-06-16T08:37:52Z</time>
      </trkpt>
      <trkpt lat="43.45931" lon="3.06145">
        <ele>91.46</ele>
        <time>2016-06-16T08:38:02Z</time>
      </trkpt>
      <trkpt lat="43.45937" lon="3.06126">
        <ele>94.83</ele>
        <time>2016-06-16T08:38:12Z</time>
      </trkpt>
      <trkpt lat="43.45937" lon="3.06124">
        <ele>94.83</ele>
        <time>2016-06-16T08:38:13Z</time>
      </trkpt>
      <trkpt lat="43.45941" lon="3.06105">
        <ele>98.19</ele>
        <time>2016-06-16T08:38:23Z</time>
      </trkpt>
      <trkpt lat="43.45946" lon="3.06086">
        <ele>101.56</ele>
        <time>2016-06-16T08:38:33Z</time>
      </trkpt>
      <trkpt lat="43.45952" lon="3.06064">
        <ele>104.44</ele>
        <time>2016-06-16T08:38:46Z</time>
      </trkpt>
      <trkpt lat="43.45956" lon="3.06034">
        <ele>107.32</ele>
        <time>2016-06-16T08:39:08Z</time>
      </trkpt>
      <trkpt lat="43.45953" lon="3.0604">
        <ele>107.81</ele>
        <time>2016-06-16T08:39:13Z</time>
      </trkpt>
      <trkpt lat="43.4593" lon="3.06055">
        <ele>111.17</ele>
        <time>2016-06-16T08:39:32Z</time>
      </trkpt>
      <trkpt lat="43.45928" lon="3.06054">
        <ele>111.17</ele>
        <time>2016-06-16T08:39:33Z</time>
      </trkpt>
      <trkpt lat="43.45916" lon="3.06028">
        <ele>112.13</ele>
        <time>2016-06-16T08:39:48Z</time>
      </trkpt>
      <trkpt lat="43.45917" lon="3.06019">
        <ele>112.61</ele>
        <time>2016-06-16T08:39:52Z</time>
      </trkpt>
      <trkpt lat="43.45929" lon="3.0598">
        <ele>115.01</ele>
        <time>2016-06-16T08:40:10Z</time>
      </trkpt>
      <trkpt lat="43.4594" lon="3.05952">
        <ele>117.9</ele>
        <time>2016-06-16T08:40:25Z</time>
      </trkpt>
      <trkpt lat="43.45954" lon="3.05912">
        <ele>120.3</ele>
        <time>2016-06-16T08:40:44Z</time>
      </trkpt>
      <trkpt lat="43.45976" lon="3.05876">
        <ele>123.67</ele>
        <time>2016-06-16T08:41:03Z</time>
      </trkpt>
      <trkpt lat="43.45987" lon="3.05832">
        <ele>125.59</ele>
        <time>2016-06-16T08:41:21Z</time>
      </trkpt>
      <trkpt lat="43.45992" lon="3.05825">
        <ele>125.59</ele>
        <time>2016-06-16T08:41:33Z</time>
      </trkpt>
      <trkpt lat="43.45992" lon="3.05825">
        <ele>125.11</ele>
        <time>2016-06-16T08:42:59Z</time>
      </trkpt>
      <trkpt lat="43.46015" lon="3.05797">
        <ele>122.22</ele>
        <time>2016-06-16T08:43:09Z</time>
      </trkpt>
      <trkpt lat="43.46035" lon="3.05775">
        <ele>123.19</ele>
        <time>2016-06-16T08:43:21Z</time>
      </trkpt>
      <trkpt lat="43.4607" lon="3.05737">
        <ele>120.3</ele>
        <time>2016-06-16T08:43:35Z</time>
      </trkpt>
      <trkpt lat="43.46075" lon="3.05732">
        <ele>120.3</ele>
        <time>2016-06-16T08:43:36Z</time>
      </trkpt>
      <trkpt lat="43.46078" lon="3.05727">
        <ele>119.82</ele>
        <time>2016-06-16T08:43:37Z</time>
      </trkpt>
      <trkpt lat="43.46098" lon="3.05666">
        <ele>118.86</ele>
        <time>2016-06-16T08:43:48Z</time>
      </trkpt>
      <trkpt lat="43.46104" lon="3.05635">
        <ele>121.26</ele>
        <time>2016-06-16T08:43:58Z</time>
      </trkpt>
      <trkpt lat="43.46112" lon="3.05601">
        <ele>124.63</ele>
        <time>2016-06-16T08:44:12Z</time>
      </trkpt>
      <trkpt lat="43.46132" lon="3.05552">
        <ele>127.51</ele>
        <time>2016-06-16T08:44:35Z</time>
      </trkpt>
      <trkpt lat="43.46157" lon="3.05502">
        <ele>126.07</ele>
        <time>2016-06-16T08:44:50Z</time>
      </trkpt>
      <trkpt lat="43.46187" lon="3.05473">
        <ele>127.99</ele>
        <time>2016-06-16T08:45:06Z</time>
      </trkpt>
      <trkpt lat="43.46217" lon="3.0544">
        <ele>130.88</ele>
        <time>2016-06-16T08:45:25Z</time>
      </trkpt>
      <trkpt lat="43.46244" lon="3.05409">
        <ele>133.28</ele>
        <time>2016-06-16T08:45:44Z</time>
      </trkpt>
      <trkpt lat="43.46275" lon="3.05388">
        <ele>135.68</ele>
        <time>2016-06-16T08:46:02Z</time>
      </trkpt>
      <trkpt lat="43.46312" lon="3.0537">
        <ele>137.13</ele>
        <time>2016-06-16T08:46:20Z</time>
      </trkpt>
      <trkpt lat="43.46345" lon="3.05373">
        <ele>134.72</ele>
        <time>2016-06-16T08:46:27Z</time>
      </trkpt>
      <trkpt lat="43.46366" lon="3.05371">
        <ele>130.88</ele>
        <time>2016-06-16T08:46:31Z</time>
      </trkpt>
      <trkpt lat="43.46372" lon="3.0537">
        <ele>130.88</ele>
        <time>2016-06-16T08:46:32Z</time>
      </trkpt>
      <trkpt lat="43.46389" lon="3.05367">
        <ele>127.99</ele>
        <time>2016-06-16T08:46:35Z</time>
      </trkpt>
      <trkpt lat="43.46405" lon="3.0536">
        <ele>126.55</ele>
        <time>2016-06-16T08:46:38Z</time>
      </trkpt>
      <trkpt lat="43.46435" lon="3.05342">
        <ele>128.95</ele>
        <time>2016-06-16T08:46:48Z</time>
      </trkpt>
      <trkpt lat="43.46468" lon="3.05342">
        <ele>131.84</ele>
        <time>2016-06-16T08:47:02Z</time>
      </trkpt>
      <trkpt lat="43.46504" lon="3.05342">
        <ele>133.28</ele>
        <time>2016-06-16T08:47:18Z</time>
      </trkpt>
      <trkpt lat="43.4653" lon="3.0534">
        <ele>132.8</ele>
        <time>2016-06-16T08:47:28Z</time>
      </trkpt>
      <trkpt lat="43.46548" lon="3.05334">
        <ele>131.36</ele>
        <time>2016-06-16T08:47:32Z</time>
      </trkpt>
      <trkpt lat="43.46584" lon="3.05318">
        <ele>132.32</ele>
        <time>2016-06-16T08:47:46Z</time>
      </trkpt>
      <trkpt lat="43.46624" lon="3.05289">
        <ele>134.24</ele>
        <time>2016-06-16T08:48:05Z</time>
      </trkpt>
      <trkpt lat="43.46644" lon="3.05252">
        <ele>133.76</ele>
        <time>2016-06-16T08:48:18Z</time>
      </trkpt>
      <trkpt lat="43.46657" lon="3.05234">
        <ele>132.32</ele>
        <time>2016-06-16T08:48:22Z</time>
      </trkpt>
      <trkpt lat="43.46671" lon="3.05207">
        <ele>128.95</ele>
        <time>2016-06-16T08:48:30Z</time>
      </trkpt>
      <trkpt lat="43.46687" lon="3.05192">
        <ele>127.51</ele>
        <time>2016-06-16T08:48:38Z</time>
      </trkpt>
      <trkpt lat="43.46733" lon="3.05171">
        <ele>127.51</ele>
        <time>2016-06-16T08:48:56Z</time>
      </trkpt>
      <trkpt lat="43.46756" lon="3.0514">
        <ele>128.95</ele>
        <time>2016-06-16T08:49:13Z</time>
      </trkpt>
      <trkpt lat="43.46773" lon="3.05108">
        <ele>129.43</ele>
        <time>2016-06-16T08:49:27Z</time>
      </trkpt>
      <trkpt lat="43.46795" lon="3.05073">
        <ele>130.4</ele>
        <time>2016-06-16T08:49:43Z</time>
      </trkpt>
      <trkpt lat="43.46795" lon="3.05024">
        <ele>129.92</ele>
        <time>2016-06-16T08:49:59Z</time>
      </trkpt>
      <trkpt lat="43.46775" lon="3.04973">
        <ele>129.43</ele>
        <time>2016-06-16T08:50:15Z</time>
      </trkpt>
      <trkpt lat="43.46742" lon="3.04948">
        <ele>127.51</ele>
        <time>2016-06-16T08:50:26Z</time>
      </trkpt>
      <trkpt lat="43.46738" lon="3.04927">
        <ele>125.11</ele>
        <time>2016-06-16T08:50:31Z</time>
      </trkpt>
      <trkpt lat="43.46745" lon="3.04884">
        <ele>125.11</ele>
        <time>2016-06-16T08:50:44Z</time>
      </trkpt>
      <trkpt lat="43.46754" lon="3.04804">
        <ele>127.03</ele>
        <time>2016-06-16T08:51:04Z</time>
      </trkpt>
      <trkpt lat="43.46744" lon="3.04733">
        <ele>126.07</ele>
        <time>2016-06-16T08:51:20Z</time>
      </trkpt>
      <trkpt lat="43.46741" lon="3.04708">
        <ele>125.11</ele>
        <time>2016-06-16T08:51:24Z</time>
      </trkpt>
      <trkpt lat="43.46751" lon="3.04615">
        <ele>123.67</ele>
        <time>2016-06-16T08:51:41Z</time>
      </trkpt>
      <trkpt lat="43.46751" lon="3.04609">
        <ele>123.67</ele>
        <time>2016-06-16T08:51:42Z</time>
      </trkpt>
      <trkpt lat="43.46749" lon="3.04541">
        <ele>124.15</ele>
        <time>2016-06-16T08:51:55Z</time>
      </trkpt>
      <trkpt lat="43.46743" lon="3.04469">
        <ele>125.11</ele>
        <time>2016-06-16T08:52:11Z</time>
      </trkpt>
      <trkpt lat="43.46737" lon="3.04417">
        <ele>124.63</ele>
        <time>2016-06-16T08:52:22Z</time>
      </trkpt>
      <trkpt lat="43.4674" lon="3.04406">
        <ele>125.59</ele>
        <time>2016-06-16T08:52:26Z</time>
      </trkpt>
      <trkpt lat="43.46777" lon="3.04385">
        <ele>123.67</ele>
        <time>2016-06-16T08:52:40Z</time>
      </trkpt>
      <trkpt lat="43.46801" lon="3.04378">
        <ele>121.74</ele>
        <time>2016-06-16T08:52:45Z</time>
      </trkpt>
      <trkpt lat="43.46825" lon="3.04364">
        <ele>118.38</ele>
        <time>2016-06-16T08:52:50Z</time>
      </trkpt>
      <trkpt lat="43.46859" lon="3.04359">
        <ele>115.98</ele>
        <time>2016-06-16T08:52:56Z</time>
      </trkpt>
      <trkpt lat="43.46912" lon="3.04387">
        <ele>111.65</ele>
        <time>2016-06-16T08:53:05Z</time>
      </trkpt>
      <trkpt lat="43.46937" lon="3.04398">
        <ele>109.25</ele>
        <time>2016-06-16T08:53:14Z</time>
      </trkpt>
      <trkpt lat="43.46966" lon="3.04407">
        <ele>106.84</ele>
        <time>2016-06-16T08:53:23Z</time>
      </trkpt>
      <trkpt lat="43.46979" lon="3.04406">
        <ele>105.88</ele>
        <time>2016-06-16T08:53:26Z</time>
      </trkpt>
      <trkpt lat="43.46997" lon="3.0441">
        <ele>104.44</ele>
        <time>2016-06-16T08:53:30Z</time>
      </trkpt>
      <trkpt lat="43.47012" lon="3.0442">
        <ele>102.52</ele>
        <time>2016-06-16T08:53:34Z</time>
      </trkpt>
      <trkpt lat="43.47041" lon="3.04465">
        <ele>99.15</ele>
        <time>2016-06-16T08:53:44Z</time>
      </trkpt>
      <trkpt lat="43.47066" lon="3.04497">
        <ele>96.27</ele>
        <time>2016-06-16T08:53:51Z</time>
      </trkpt>
      <trkpt lat="43.47086" lon="3.04521">
        <ele>92.42</ele>
        <time>2016-06-16T08:53:56Z</time>
      </trkpt>
      <trkpt lat="43.4709" lon="3.04525">
        <ele>92.42</ele>
        <time>2016-06-16T08:53:57Z</time>
      </trkpt>
      <trkpt lat="43.47104" lon="3.04545">
        <ele>90.5</ele>
        <time>2016-06-16T08:54:05Z</time>
      </trkpt>
      <trkpt lat="43.47092" lon="3.04504">
        <ele>87.14</ele>
        <time>2016-06-16T08:54:15Z</time>
      </trkpt>
      <trkpt lat="43.4708" lon="3.04479">
        <ele>82.81</ele>
        <time>2016-06-16T08:54:18Z</time>
      </trkpt>
      <trkpt lat="43.47071" lon="3.04462">
        <ele>81.85</ele>
        <time>2016-06-16T08:54:20Z</time>
      </trkpt>
      <trkpt lat="43.47058" lon="3.04436">
        <ele>80.41</ele>
        <time>2016-06-16T08:54:23Z</time>
      </trkpt>
      <trkpt lat="43.47046" lon="3.04411">
        <ele>79.45</ele>
        <time>2016-06-16T08:54:26Z</time>
      </trkpt>
      <trkpt lat="43.47044" lon="3.04357">
        <ele>75.6</ele>
        <time>2016-06-16T08:54:32Z</time>
      </trkpt>
      <trkpt lat="43.4705" lon="3.04338">
        <ele>73.68</ele>
        <time>2016-06-16T08:54:35Z</time>
      </trkpt>
      <trkpt lat="43.47071" lon="3.04318">
        <ele>70.31</ele>
        <time>2016-06-16T08:54:41Z</time>
      </trkpt>
      <trkpt lat="43.47085" lon="3.04276">
        <ele>67.43</ele>
        <time>2016-06-16T08:54:46Z</time>
      </trkpt>
      <trkpt lat="43.47087" lon="3.04249">
        <ele>65.51</ele>
        <time>2016-06-16T08:54:49Z</time>
      </trkpt>
      <trkpt lat="43.47084" lon="3.0417">
        <ele>67.43</ele>
        <time>2016-06-16T08:55:04Z</time>
      </trkpt>
      <trkpt lat="43.47079" lon="3.0416">
        <ele>67.91</ele>
        <time>2016-06-16T08:55:19Z</time>
      </trkpt>
      <trkpt lat="43.47077" lon="3.04135">
        <ele>67.91</ele>
        <time>2016-06-16T08:55:59Z</time>
      </trkpt>
      <trkpt lat="43.47087" lon="3.0408">
        <ele>67.91</ele>
        <time>2016-06-16T08:56:19Z</time>
      </trkpt>
      <trkpt lat="43.47083" lon="3.04007">
        <ele>66.95</ele>
        <time>2016-06-16T08:56:41Z</time>
      </trkpt>
      <trkpt lat="43.47084" lon="3.03996">
        <ele>66.95</ele>
        <time>2016-06-16T08:56:55Z</time>
      </trkpt>
      <trkpt lat="43.47075" lon="3.03963">
        <ele>65.99</ele>
        <time>2016-06-16T08:57:06Z</time>
      </trkpt>
      <trkpt lat="43.47059" lon="3.03904">
        <ele>65.51</ele>
        <time>2016-06-16T08:57:20Z</time>
      </trkpt>
      <trkpt lat="43.47025" lon="3.03816">
        <ele>65.51</ele>
        <time>2016-06-16T08:57:41Z</time>
      </trkpt>
      <trkpt lat="43.47004" lon="3.03747">
        <ele>65.99</ele>
        <time>2016-06-16T08:57:57Z</time>
      </trkpt>
      <trkpt lat="43.46985" lon="3.03679">
        <ele>65.03</ele>
        <time>2016-06-16T08:58:11Z</time>
      </trkpt>
      <trkpt lat="43.46962" lon="3.03603">
        <ele>64.07</ele>
        <time>2016-06-16T08:58:26Z</time>
      </trkpt>
      <trkpt lat="43.46943" lon="3.0354">
        <ele>63.58</ele>
        <time>2016-06-16T08:58:40Z</time>
      </trkpt>
      <trkpt lat="43.46917" lon="3.03471">
        <ele>63.1</ele>
        <time>2016-06-16T08:58:55Z</time>
      </trkpt>
      <trkpt lat="43.46879" lon="3.03388">
        <ele>62.62</ele>
        <time>2016-06-16T08:59:11Z</time>
      </trkpt>
      <trkpt lat="43.46853" lon="3.0333">
        <ele>64.07</ele>
        <time>2016-06-16T08:59:24Z</time>
      </trkpt>
      <trkpt lat="43.46831" lon="3.03286">
        <ele>63.58</ele>
        <time>2016-06-16T08:59:36Z</time>
      </trkpt>
      <trkpt lat="43.46798" lon="3.03251">
        <ele>64.07</ele>
        <time>2016-06-16T08:59:50Z</time>
      </trkpt>
      <trkpt lat="43.46757" lon="3.0321">
        <ele>64.55</ele>
        <time>2016-06-16T09:00:06Z</time>
      </trkpt>
      <trkpt lat="43.46705" lon="3.03147">
        <ele>64.55</ele>
        <time>2016-06-16T09:00:26Z</time>
      </trkpt>
      <trkpt lat="43.46651" lon="3.03103">
        <ele>64.55</ele>
        <time>2016-06-16T09:00:43Z</time>
      </trkpt>
      <trkpt lat="43.46588" lon="3.03095">
        <ele>66.47</ele>
        <time>2016-06-16T09:01:02Z</time>
      </trkpt>
      <trkpt lat="43.46527" lon="3.03074">
        <ele>67.91</ele>
        <time>2016-06-16T09:01:21Z</time>
      </trkpt>
      <trkpt lat="43.46489" lon="3.03068">
        <ele>68.39</ele>
        <time>2016-06-16T09:01:33Z</time>
      </trkpt>
      <trkpt lat="43.46424" lon="3.03047">
        <ele>67.43</ele>
        <time>2016-06-16T09:01:52Z</time>
      </trkpt>
      <trkpt lat="43.46357" lon="3.03041">
        <ele>66.95</ele>
        <time>2016-06-16T09:02:10Z</time>
      </trkpt>
      <trkpt lat="43.46264" lon="3.03064">
        <ele>67.91</ele>
        <time>2016-06-16T09:02:35Z</time>
      </trkpt>
      <trkpt lat="43.46179" lon="3.03087">
        <ele>67.43</ele>
        <time>2016-06-16T09:02:57Z</time>
      </trkpt>
      <trkpt lat="43.4611" lon="3.03122">
        <ele>67.43</ele>
        <time>2016-06-16T09:03:17Z</time>
      </trkpt>
      <trkpt lat="43.46047" lon="3.03126">
        <ele>65.99</ele>
        <time>2016-06-16T09:03:33Z</time>
      </trkpt>
      <trkpt lat="43.45989" lon="3.0314">
        <ele>65.51</ele>
        <time>2016-06-16T09:03:49Z</time>
      </trkpt>
      <trkpt lat="43.45894" lon="3.03167">
        <ele>65.51</ele>
        <time>2016-06-16T09:04:15Z</time>
      </trkpt>
      <trkpt lat="43.45838" lon="3.03226">
        <ele>65.51</ele>
        <time>2016-06-16T09:04:34Z</time>
      </trkpt>
      <trkpt lat="43.45789" lon="3.03273">
        <ele>65.99</ele>
        <time>2016-06-16T09:04:51Z</time>
      </trkpt>
      <trkpt lat="43.4574" lon="3.03314">
        <ele>65.03</ele>
        <time>2016-06-16T09:05:06Z</time>
      </trkpt>
      <trkpt lat="43.45727" lon="3.03329">
        <ele>65.03</ele>
        <time>2016-06-16T09:05:10Z</time>
      </trkpt>
      <trkpt lat="43.4568" lon="3.03439">
        <ele>64.55</ele>
        <time>2016-06-16T09:05:32Z</time>
      </trkpt>
      <trkpt lat="43.45655" lon="3.03564">
        <ele>64.07</ele>
        <time>2016-06-16T09:05:53Z</time>
      </trkpt>
      <trkpt lat="43.45646" lon="3.03607">
        <ele>63.58</ele>
        <time>2016-06-16T09:06:00Z</time>
      </trkpt>
      <trkpt lat="43.45634" lon="3.03629">
        <ele>63.58</ele>
        <time>2016-06-16T09:06:04Z</time>
      </trkpt>
      <trkpt lat="43.45617" lon="3.03656">
        <ele>63.1</ele>
        <time>2016-06-16T09:06:09Z</time>
      </trkpt>
      <trkpt lat="43.45595" lon="3.03751">
        <ele>62.14</ele>
        <time>2016-06-16T09:06:24Z</time>
      </trkpt>
      <trkpt lat="43.45589" lon="3.03782">
        <ele>62.14</ele>
        <time>2016-06-16T09:06:29Z</time>
      </trkpt>
      <trkpt lat="43.4556" lon="3.03873">
        <ele>62.14</ele>
        <time>2016-06-16T09:06:48Z</time>
      </trkpt>
      <trkpt lat="43.45521" lon="3.03923">
        <ele>61.66</ele>
        <time>2016-06-16T09:07:02Z</time>
      </trkpt>
      <trkpt lat="43.45453" lon="3.03996">
        <ele>60.7</ele>
        <time>2016-06-16T09:07:25Z</time>
      </trkpt>
      <trkpt lat="43.45402" lon="3.04019">
        <ele>61.18</ele>
        <time>2016-06-16T09:07:41Z</time>
      </trkpt>
      <trkpt lat="43.45382" lon="3.04057">
        <ele>61.18</ele>
        <time>2016-06-16T09:07:52Z</time>
      </trkpt>
      <trkpt lat="43.45387" lon="3.04154">
        <ele>60.7</ele>
        <time>2016-06-16T09:08:12Z</time>
      </trkpt>
      <trkpt lat="43.45389" lon="3.04255">
        <ele>59.74</ele>
        <time>2016-06-16T09:08:33Z</time>
      </trkpt>
      <trkpt lat="43.45364" lon="3.04343">
        <ele>59.74</ele>
        <time>2016-06-16T09:08:52Z</time>
      </trkpt>
      <trkpt lat="43.45361" lon="3.04414">
        <ele>59.26</ele>
        <time>2016-06-16T09:09:07Z</time>
      </trkpt>
      <trkpt lat="43.45364" lon="3.04441">
        <ele>59.74</ele>
        <time>2016-06-16T09:09:13Z</time>
      </trkpt>
      <trkpt lat="43.45354" lon="3.04452">
        <ele>59.74</ele>
        <time>2016-06-16T09:09:17Z</time>
      </trkpt>
      <trkpt lat="43.45286" lon="3.04496">
        <ele>59.26</ele>
        <time>2016-06-16T09:09:37Z</time>
      </trkpt>
      <trkpt lat="43.45229" lon="3.04533">
        <ele>59.26</ele>
        <time>2016-06-16T09:09:54Z</time>
      </trkpt>
      <trkpt lat="43.45187" lon="3.0458">
        <ele>59.26</ele>
        <time>2016-06-16T09:10:09Z</time>
      </trkpt>
      <trkpt lat="43.45155" lon="3.04637">
        <ele>59.74</ele>
        <time>2016-06-16T09:10:24Z</time>
      </trkpt>
      <trkpt lat="43.45107" lon="3.04716">
        <ele>59.74</ele>
        <time>2016-06-16T09:10:43Z</time>
      </trkpt>
      <trkpt lat="43.45095" lon="3.04732">
        <ele>59.74</ele>
        <time>2016-06-16T09:10:48Z</time>
      </trkpt>
      <trkpt lat="43.45064" lon="3.04642">
        <ele>60.22</ele>
        <time>2016-06-16T09:11:09Z</time>
      </trkpt>
      <trkpt lat="43.45018" lon="3.04538">
        <ele>61.18</ele>
        <time>2016-06-16T09:11:34Z</time>
      </trkpt>
      <trkpt lat="43.44983" lon="3.04472">
        <ele>62.14</ele>
        <time>2016-06-16T09:11:50Z</time>
      </trkpt>
      <trkpt lat="43.44979" lon="3.04462">
        <ele>62.14</ele>
        <time>2016-06-16T09:11:52Z</time>
      </trkpt>
      <trkpt lat="43.44939" lon="3.04363">
        <ele>62.14</ele>
        <time>2016-06-16T09:12:11Z</time>
      </trkpt>
      <trkpt lat="43.44924" lon="3.04319">
        <ele>61.18</ele>
        <time>2016-06-16T09:12:19Z</time>
      </trkpt>
      <trkpt lat="43.44918" lon="3.04266">
        <ele>61.18</ele>
        <time>2016-06-16T09:12:32Z</time>
      </trkpt>
      <trkpt lat="43.44911" lon="3.04246">
        <ele>60.7</ele>
        <time>2016-06-16T09:12:43Z</time>
      </trkpt>
      <trkpt lat="43.4491" lon="3.04245">
        <ele>60.7</ele>
        <time>2016-06-16T09:12:44Z</time>
      </trkpt>
      <trkpt lat="43.44896" lon="3.04196">
        <ele>61.66</ele>
        <time>2016-06-16T09:12:58Z</time>
      </trkpt>
      <trkpt lat="43.44897" lon="3.04124">
        <ele>61.66</ele>
        <time>2016-06-16T09:13:12Z</time>
      </trkpt>
      <trkpt lat="43.449" lon="3.04052">
        <ele>61.18</ele>
        <time>2016-06-16T09:13:28Z</time>
      </trkpt>
      <trkpt lat="43.44904" lon="3.03959">
        <ele>62.14</ele>
        <time>2016-06-16T09:13:48Z</time>
      </trkpt>
      <trkpt lat="43.44894" lon="3.03881">
        <ele>62.14</ele>
        <time>2016-06-16T09:14:04Z</time>
      </trkpt>
      <trkpt lat="43.44877" lon="3.03805">
        <ele>62.14</ele>
        <time>2016-06-16T09:14:21Z</time>
      </trkpt>
      <trkpt lat="43.44862" lon="3.03737">
        <ele>62.62</ele>
        <time>2016-06-16T09:14:36Z</time>
      </trkpt>
      <trkpt lat="43.44842" lon="3.03636">
        <ele>63.1</ele>
        <time>2016-06-16T09:14:57Z</time>
      </trkpt>
      <trkpt lat="43.44833" lon="3.03517">
        <ele>64.07</ele>
        <time>2016-06-16T09:15:22Z</time>
      </trkpt>
      <trkpt lat="43.4483" lon="3.03508">
        <ele>64.07</ele>
        <time>2016-06-16T09:15:24Z</time>
      </trkpt>
      <trkpt lat="43.4478" lon="3.0349">
        <ele>64.55</ele>
        <time>2016-06-16T09:15:39Z</time>
      </trkpt>
      <trkpt lat="43.44739" lon="3.03458">
        <ele>65.03</ele>
        <time>2016-06-16T09:15:53Z</time>
      </trkpt>
      <trkpt lat="43.44702" lon="3.03378">
        <ele>65.99</ele>
        <time>2016-06-16T09:16:14Z</time>
      </trkpt>
      <trkpt lat="43.44694" lon="3.03333">
        <ele>67.43</ele>
        <time>2016-06-16T09:16:26Z</time>
      </trkpt>
      <trkpt lat="43.44697" lon="3.03223">
        <ele>67.91</ele>
        <time>2016-06-16T09:16:48Z</time>
      </trkpt>
      <trkpt lat="43.44686" lon="3.03134">
        <ele>69.35</ele>
        <time>2016-06-16T09:17:07Z</time>
      </trkpt>
      <trkpt lat="43.44668" lon="3.03017">
        <ele>71.27</ele>
        <time>2016-06-16T09:17:33Z</time>
      </trkpt>
      <trkpt lat="43.44637" lon="3.03017">
        <ele>72.72</ele>
        <time>2016-06-16T09:17:45Z</time>
      </trkpt>
      <trkpt lat="43.44581" lon="3.03007">
        <ele>73.68</ele>
        <time>2016-06-16T09:18:04Z</time>
      </trkpt>
      <trkpt lat="43.44512" lon="3.02993">
        <ele>76.08</ele>
        <time>2016-06-16T09:18:30Z</time>
      </trkpt>
      <trkpt lat="43.4447" lon="3.03015">
        <ele>77.52</ele>
        <time>2016-06-16T09:18:47Z</time>
      </trkpt>
      <trkpt lat="43.44422" lon="3.03034">
        <ele>78.97</ele>
        <time>2016-06-16T09:19:07Z</time>
      </trkpt>
      <trkpt lat="43.4436" lon="3.03047">
        <ele>81.85</ele>
        <time>2016-06-16T09:19:32Z</time>
      </trkpt>
      <trkpt lat="43.44324" lon="3.03077">
        <ele>84.25</ele>
        <time>2016-06-16T09:19:50Z</time>
      </trkpt>
      <trkpt lat="43.44301" lon="3.03111">
        <ele>86.66</ele>
        <time>2016-06-16T09:20:05Z</time>
      </trkpt>
      <trkpt lat="43.44276" lon="3.03133">
        <ele>88.58</ele>
        <time>2016-06-16T09:20:19Z</time>
      </trkpt>
      <trkpt lat="43.44263" lon="3.03177">
        <ele>90.5</ele>
        <time>2016-06-16T09:20:35Z</time>
      </trkpt>
      <trkpt lat="43.44263" lon="3.03179">
        <ele>90.5</ele>
        <time>2016-06-16T09:20:51Z</time>
      </trkpt>
      <trkpt lat="43.44262" lon="3.03179">
        <ele>90.02</ele>
        <time>2016-06-16T09:22:03Z</time>
      </trkpt>
      <trkpt lat="43.44257" lon="3.03198">
        <ele>90.5</ele>
        <time>2016-06-16T09:25:21Z</time>
      </trkpt>
      <trkpt lat="43.44251" lon="3.03237">
        <ele>91.46</ele>
        <time>2016-06-16T09:25:47Z</time>
      </trkpt>
      <trkpt lat="43.44238" lon="3.0329">
        <ele>92.9</ele>
        <time>2016-06-16T09:26:21Z</time>
      </trkpt>
      <trkpt lat="43.4423" lon="3.03325">
        <ele>93.87</ele>
        <time>2016-06-16T09:26:44Z</time>
      </trkpt>
      <trkpt lat="43.44226" lon="3.03369">
        <ele>94.35</ele>
        <time>2016-06-16T09:27:11Z</time>
      </trkpt>
      <trkpt lat="43.44226" lon="3.03373">
        <ele>94.35</ele>
        <time>2016-06-16T09:27:13Z</time>
      </trkpt>
      <trkpt lat="43.44238" lon="3.03407">
        <ele>97.23</ele>
        <time>2016-06-16T09:27:36Z</time>
      </trkpt>
      <trkpt lat="43.44262" lon="3.03438">
        <ele>99.63</ele>
        <time>2016-06-16T09:28:03Z</time>
      </trkpt>
      <trkpt lat="43.44276" lon="3.03475">
        <ele>102.52</ele>
        <time>2016-06-16T09:28:30Z</time>
      </trkpt>
      <trkpt lat="43.44281" lon="3.03533">
        <ele>103.48</ele>
        <time>2016-06-16T09:29:03Z</time>
      </trkpt>
      <trkpt lat="43.44282" lon="3.03567">
        <ele>106.36</ele>
        <time>2016-06-16T09:29:25Z</time>
      </trkpt>
      <trkpt lat="43.4428" lon="3.0358">
        <ele>108.77</ele>
        <time>2016-06-16T09:29:38Z</time>
      </trkpt>
      <trkpt lat="43.4429" lon="3.03613">
        <ele>108.29</ele>
        <time>2016-06-16T09:29:53Z</time>
      </trkpt>
      <trkpt lat="43.44305" lon="3.0366">
        <ele>108.77</ele>
        <time>2016-06-16T09:30:09Z</time>
      </trkpt>
      <trkpt lat="43.44315" lon="3.03737">
        <ele>109.73</ele>
        <time>2016-06-16T09:30:30Z</time>
      </trkpt>
      <trkpt lat="43.44324" lon="3.03746">
        <ele>110.69</ele>
        <time>2016-06-16T09:30:36Z</time>
      </trkpt>
      <trkpt lat="43.44372" lon="3.03745">
        <ele>111.17</ele>
        <time>2016-06-16T09:30:56Z</time>
      </trkpt>
      <trkpt lat="43.44378" lon="3.03771">
        <ele>111.17</ele>
        <time>2016-06-16T09:31:04Z</time>
      </trkpt>
      <trkpt lat="43.44379" lon="3.03785">
        <ele>111.17</ele>
        <time>2016-06-16T09:31:08Z</time>
      </trkpt>
      <trkpt lat="43.44387" lon="3.03859">
        <ele>113.57</ele>
        <time>2016-06-16T09:31:29Z</time>
      </trkpt>
      <trkpt lat="43.44406" lon="3.03882">
        <ele>114.05</ele>
        <time>2016-06-16T09:31:39Z</time>
      </trkpt>
      <trkpt lat="43.44419" lon="3.03887">
        <ele>114.53</ele>
        <time>2016-06-16T09:31:44Z</time>
      </trkpt>
      <trkpt lat="43.44421" lon="3.039">
        <ele>115.01</ele>
        <time>2016-06-16T09:31:48Z</time>
      </trkpt>
      <trkpt lat="43.44428" lon="3.03958">
        <ele>115.01</ele>
        <time>2016-06-16T09:32:02Z</time>
      </trkpt>
      <trkpt lat="43.44455" lon="3.04023">
        <ele>116.46</ele>
        <time>2016-06-16T09:32:22Z</time>
      </trkpt>
      <trkpt lat="43.44469" lon="3.04051">
        <ele>119.82</ele>
        <time>2016-06-16T09:32:33Z</time>
      </trkpt>
      <trkpt lat="43.44495" lon="3.04079">
        <ele>121.26</ele>
        <time>2016-06-16T09:32:46Z</time>
      </trkpt>
      <trkpt lat="43.44497" lon="3.04107">
        <ele>120.3</ele>
        <time>2016-06-16T09:32:51Z</time>
      </trkpt>
      <trkpt lat="43.44506" lon="3.04141">
        <ele>116.46</ele>
        <time>2016-06-16T09:32:56Z</time>
      </trkpt>
      <trkpt lat="43.44511" lon="3.04207">
        <ele>112.61</ele>
        <time>2016-06-16T09:33:04Z</time>
      </trkpt>
      <trkpt lat="43.44513" lon="3.04225">
        <ele>111.65</ele>
        <time>2016-06-16T09:33:06Z</time>
      </trkpt>
      <trkpt lat="43.44514" lon="3.04233">
        <ele>111.17</ele>
        <time>2016-06-16T09:33:07Z</time>
      </trkpt>
      <trkpt lat="43.44521" lon="3.04331">
        <ele>110.69</ele>
        <time>2016-06-16T09:33:20Z</time>
      </trkpt>
      <trkpt lat="43.44541" lon="3.04387">
        <ele>111.17</ele>
        <time>2016-06-16T09:33:32Z</time>
      </trkpt>
      <trkpt lat="43.44554" lon="3.04405">
        <ele>109.73</ele>
        <time>2016-06-16T09:33:36Z</time>
      </trkpt>
      <trkpt lat="43.44609" lon="3.04441">
        <ele>108.77</ele>
        <time>2016-06-16T09:33:51Z</time>
      </trkpt>
      <trkpt lat="43.44643" lon="3.04472">
        <ele>108.29</ele>
        <time>2016-06-16T09:34:01Z</time>
      </trkpt>
      <trkpt lat="43.44656" lon="3.04498">
        <ele>106.84</ele>
        <time>2016-06-16T09:34:06Z</time>
      </trkpt>
      <trkpt lat="43.44661" lon="3.04509">
        <ele>105.88</ele>
        <time>2016-06-16T09:34:08Z</time>
      </trkpt>
      <trkpt lat="43.44675" lon="3.04528">
        <ele>104.92</ele>
        <time>2016-06-16T09:34:12Z</time>
      </trkpt>
      <trkpt lat="43.44684" lon="3.04542">
        <ele>103</ele>
        <time>2016-06-16T09:34:16Z</time>
      </trkpt>
      <trkpt lat="43.44683" lon="3.04544">
        <ele>102.52</ele>
        <time>2016-06-16T09:34:17Z</time>
      </trkpt>
      <trkpt lat="43.44635" lon="3.04566">
        <ele>102.52</ele>
        <time>2016-06-16T09:34:35Z</time>
      </trkpt>
      <trkpt lat="43.44609" lon="3.04564">
        <ele>105.4</ele>
        <time>2016-06-16T09:34:47Z</time>
      </trkpt>
      <trkpt lat="43.44584" lon="3.04558">
        <ele>108.77</ele>
        <time>2016-06-16T09:34:59Z</time>
      </trkpt>
      <trkpt lat="43.44541" lon="3.04549">
        <ele>112.13</ele>
        <time>2016-06-16T09:35:20Z</time>
      </trkpt>
      <trkpt lat="43.445" lon="3.04531">
        <ele>115.01</ele>
        <time>2016-06-16T09:35:40Z</time>
      </trkpt>
      <trkpt lat="43.44471" lon="3.04529">
        <ele>117.9</ele>
        <time>2016-06-16T09:35:56Z</time>
      </trkpt>
      <trkpt lat="43.44439" lon="3.04531">
        <ele>120.78</ele>
        <time>2016-06-16T09:36:13Z</time>
      </trkpt>
      <trkpt lat="43.44414" lon="3.04544">
        <ele>124.15</ele>
        <time>2016-06-16T09:36:27Z</time>
      </trkpt>
      <trkpt lat="43.44392" lon="3.04553">
        <ele>127.51</ele>
        <time>2016-06-16T09:36:39Z</time>
      </trkpt>
      <trkpt lat="43.44359" lon="3.04584">
        <ele>129.43</ele>
        <time>2016-06-16T09:36:58Z</time>
      </trkpt>
      <trkpt lat="43.44328" lon="3.04628">
        <ele>128.47</ele>
        <time>2016-06-16T09:37:10Z</time>
      </trkpt>
      <trkpt lat="43.44267" lon="3.04685">
        <ele>127.03</ele>
        <time>2016-06-16T09:37:27Z</time>
      </trkpt>
      <trkpt lat="43.44209" lon="3.04711">
        <ele>126.55</ele>
        <time>2016-06-16T09:37:44Z</time>
      </trkpt>
      <trkpt lat="43.44168" lon="3.04741">
        <ele>127.03</ele>
        <time>2016-06-16T09:37:57Z</time>
      </trkpt>
      <trkpt lat="43.44123" lon="3.04764">
        <ele>129.43</ele>
        <time>2016-06-16T09:38:13Z</time>
      </trkpt>
      <trkpt lat="43.44103" lon="3.04778">
        <ele>132.8</ele>
        <time>2016-06-16T09:38:24Z</time>
      </trkpt>
      <trkpt lat="43.44084" lon="3.04783">
        <ele>135.68</ele>
        <time>2016-06-16T09:38:36Z</time>
      </trkpt>
      <trkpt lat="43.4405" lon="3.0479">
        <ele>138.09</ele>
        <time>2016-06-16T09:38:56Z</time>
      </trkpt>
      <trkpt lat="43.44012" lon="3.04801">
        <ele>140.97</ele>
        <time>2016-06-16T09:39:17Z</time>
      </trkpt>
      <trkpt lat="43.43979" lon="3.04795">
        <ele>143.85</ele>
        <time>2016-06-16T09:39:33Z</time>
      </trkpt>
      <trkpt lat="43.43955" lon="3.04778">
        <ele>146.74</ele>
        <time>2016-06-16T09:39:48Z</time>
      </trkpt>
      <trkpt lat="43.43917" lon="3.0479">
        <ele>144.34</ele>
        <time>2016-06-16T09:39:59Z</time>
      </trkpt>
      <trkpt lat="43.43872" lon="3.0483">
        <ele>145.78</ele>
        <time>2016-06-16T09:40:11Z</time>
      </trkpt>
      <trkpt lat="43.43865" lon="3.04854">
        <ele>148.66</ele>
        <time>2016-06-16T09:40:19Z</time>
      </trkpt>
      <trkpt lat="43.43859" lon="3.04879">
        <ele>152.03</ele>
        <time>2016-06-16T09:40:31Z</time>
      </trkpt>
      <trkpt lat="43.4385" lon="3.04884">
        <ele>153.47</ele>
        <time>2016-06-16T09:40:37Z</time>
      </trkpt>
      <trkpt lat="43.43834" lon="3.04897">
        <ele>156.83</ele>
        <time>2016-06-16T09:40:50Z</time>
      </trkpt>
      <trkpt lat="43.43818" lon="3.0492">
        <ele>157.31</ele>
        <time>2016-06-16T09:41:00Z</time>
      </trkpt>
      <trkpt lat="43.43797" lon="3.04932">
        <ele>155.87</ele>
        <time>2016-06-16T09:41:04Z</time>
      </trkpt>
      <trkpt lat="43.43762" lon="3.04935">
        <ele>152.03</ele>
        <time>2016-06-16T09:41:13Z</time>
      </trkpt>
      <trkpt lat="43.43744" lon="3.04913">
        <ele>149.62</ele>
        <time>2016-06-16T09:41:22Z</time>
      </trkpt>
      <trkpt lat="43.43717" lon="3.04889">
        <ele>146.26</ele>
        <time>2016-06-16T09:41:27Z</time>
      </trkpt>
      <trkpt lat="43.43711" lon="3.04885">
        <ele>146.26</ele>
        <time>2016-06-16T09:41:28Z</time>
      </trkpt>
      <trkpt lat="43.43688" lon="3.04866">
        <ele>143.85</ele>
        <time>2016-06-16T09:41:32Z</time>
      </trkpt>
      <trkpt lat="43.43657" lon="3.04841">
        <ele>143.85</ele>
        <time>2016-06-16T09:41:38Z</time>
      </trkpt>
      <trkpt lat="43.43646" lon="3.04829">
        <ele>143.37</ele>
        <time>2016-06-16T09:41:40Z</time>
      </trkpt>
      <trkpt lat="43.4361" lon="3.04784">
        <ele>139.53</ele>
        <time>2016-06-16T09:41:46Z</time>
      </trkpt>
      <trkpt lat="43.43566" lon="3.04725">
        <ele>136.16</ele>
        <time>2016-06-16T09:41:53Z</time>
      </trkpt>
      <trkpt lat="43.43552" lon="3.04706">
        <ele>135.2</ele>
        <time>2016-06-16T09:41:55Z</time>
      </trkpt>
      <trkpt lat="43.43525" lon="3.04667">
        <ele>131.84</ele>
        <time>2016-06-16T09:41:59Z</time>
      </trkpt>
      <trkpt lat="43.43479" lon="3.04636">
        <ele>130.4</ele>
        <time>2016-06-16T09:42:05Z</time>
      </trkpt>
      <trkpt lat="43.43457" lon="3.04629">
        <ele>130.4</ele>
        <time>2016-06-16T09:42:08Z</time>
      </trkpt>
      <trkpt lat="43.43396" lon="3.04574">
        <ele>131.84</ele>
        <time>2016-06-16T09:42:20Z</time>
      </trkpt>
      <trkpt lat="43.43361" lon="3.04534">
        <ele>132.32</ele>
        <time>2016-06-16T09:42:31Z</time>
      </trkpt>
      <trkpt lat="43.43335" lon="3.04512">
        <ele>131.84</ele>
        <time>2016-06-16T09:42:38Z</time>
      </trkpt>
      <trkpt lat="43.4332" lon="3.04485">
        <ele>133.76</ele>
        <time>2016-06-16T09:42:46Z</time>
      </trkpt>
      <trkpt lat="43.4331" lon="3.04455">
        <ele>135.68</ele>
        <time>2016-06-16T09:42:54Z</time>
      </trkpt>
      <trkpt lat="43.43272" lon="3.04414">
        <ele>132.32</ele>
        <time>2016-06-16T09:43:02Z</time>
      </trkpt>
      <trkpt lat="43.43257" lon="3.04396">
        <ele>131.36</ele>
        <time>2016-06-16T09:43:05Z</time>
      </trkpt>
      <trkpt lat="43.43208" lon="3.04337">
        <ele>132.32</ele>
        <time>2016-06-16T09:43:18Z</time>
      </trkpt>
      <trkpt lat="43.43175" lon="3.04294">
        <ele>130.4</ele>
        <time>2016-06-16T09:43:28Z</time>
      </trkpt>
      <trkpt lat="43.43144" lon="3.04218">
        <ele>128.47</ele>
        <time>2016-06-16T09:43:40Z</time>
      </trkpt>
      <trkpt lat="43.43129" lon="3.04194">
        <ele>127.99</ele>
        <time>2016-06-16T09:43:44Z</time>
      </trkpt>
      <trkpt lat="43.43106" lon="3.04105">
        <ele>128.95</ele>
        <time>2016-06-16T09:44:00Z</time>
      </trkpt>
      <trkpt lat="43.43056" lon="3.03991">
        <ele>130.88</ele>
        <time>2016-06-16T09:44:27Z</time>
      </trkpt>
      <trkpt lat="43.43019" lon="3.03891">
        <ele>133.76</ele>
        <time>2016-06-16T09:44:50Z</time>
      </trkpt>
      <trkpt lat="43.42986" lon="3.03767">
        <ele>137.13</ele>
        <time>2016-06-16T09:45:16Z</time>
      </trkpt>
      <trkpt lat="43.42952" lon="3.0365">
        <ele>140.01</ele>
        <time>2016-06-16T09:45:41Z</time>
      </trkpt>
      <trkpt lat="43.42935" lon="3.0353">
        <ele>141.93</ele>
        <time>2016-06-16T09:46:05Z</time>
      </trkpt>
      <trkpt lat="43.42914" lon="3.03421">
        <ele>141.45</ele>
        <time>2016-06-16T09:46:23Z</time>
      </trkpt>
      <trkpt lat="43.42889" lon="3.03316">
        <ele>142.41</ele>
        <time>2016-06-16T09:46:43Z</time>
      </trkpt>
      <trkpt lat="43.42855" lon="3.03245">
        <ele>145.78</ele>
        <time>2016-06-16T09:47:02Z</time>
      </trkpt>
      <trkpt lat="43.42827" lon="3.03199">
        <ele>148.66</ele>
        <time>2016-06-16T09:47:20Z</time>
      </trkpt>
      <trkpt lat="43.42794" lon="3.03189">
        <ele>152.03</ele>
        <time>2016-06-16T09:47:34Z</time>
      </trkpt>
      <trkpt lat="43.42746" lon="3.03188">
        <ele>154.91</ele>
        <time>2016-06-16T09:47:54Z</time>
      </trkpt>
      <trkpt lat="43.42715" lon="3.03159">
        <ele>155.87</ele>
        <time>2016-06-16T09:48:09Z</time>
      </trkpt>
      <trkpt lat="43.42691" lon="3.03098">
        <ele>155.87</ele>
        <time>2016-06-16T09:48:26Z</time>
      </trkpt>
      <trkpt lat="43.42627" lon="3.03018">
        <ele>152.99</ele>
        <time>2016-06-16T09:48:47Z</time>
      </trkpt>
      <trkpt lat="43.42568" lon="3.0295">
        <ele>152.03</ele>
        <time>2016-06-16T09:49:06Z</time>
      </trkpt>
      <trkpt lat="43.42524" lon="3.02899">
        <ele>151.54</ele>
        <time>2016-06-16T09:49:22Z</time>
      </trkpt>
      <trkpt lat="43.42471" lon="3.0286">
        <ele>150.1</ele>
        <time>2016-06-16T09:49:37Z</time>
      </trkpt>
      <trkpt lat="43.42416" lon="3.02827">
        <ele>148.18</ele>
        <time>2016-06-16T09:49:49Z</time>
      </trkpt>
      <trkpt lat="43.42365" lon="3.02765">
        <ele>148.18</ele>
        <time>2016-06-16T09:50:05Z</time>
      </trkpt>
      <trkpt lat="43.42326" lon="3.02699">
        <ele>148.66</ele>
        <time>2016-06-16T09:50:22Z</time>
      </trkpt>
      <trkpt lat="43.42302" lon="3.02632">
        <ele>150.1</ele>
        <time>2016-06-16T09:50:39Z</time>
      </trkpt>
      <trkpt lat="43.42291" lon="3.02575">
        <ele>152.51</ele>
        <time>2016-06-16T09:50:54Z</time>
      </trkpt>
      <trkpt lat="43.42279" lon="3.02516">
        <ele>153.95</ele>
        <time>2016-06-16T09:51:12Z</time>
      </trkpt>
      <trkpt lat="43.42278" lon="3.02477">
        <ele>156.35</ele>
        <time>2016-06-16T09:51:27Z</time>
      </trkpt>
      <trkpt lat="43.42292" lon="3.02454">
        <ele>159.72</ele>
        <time>2016-06-16T09:51:38Z</time>
      </trkpt>
      <trkpt lat="43.42292" lon="3.02446">
        <ele>160.68</ele>
        <time>2016-06-16T09:51:42Z</time>
      </trkpt>
      <trkpt lat="43.42297" lon="3.0242">
        <ele>161.64</ele>
        <time>2016-06-16T09:51:53Z</time>
      </trkpt>
      <trkpt lat="43.42305" lon="3.02402">
        <ele>164.04</ele>
        <time>2016-06-16T09:52:11Z</time>
      </trkpt>
    </trkseg>
  </trk>
</gpx>